Observation data for Crane on 06/20/2019      Previous  Date  Next       Current Mesonet Observations  Soil Data  Daily Summary Page  Observations in Plain Language
KCR2 200500Z 20007KT 29/08 A2981 RMK A01 T02850083  RH  028%=      5-min Rain = 0
KCR2 200501Z 20007KT 29/08 A2981 RMK A01 T02860083  RH  028%=      5-min Rain = 0
KCR2 200502Z 21006KT 29/09 A2981 RMK A01 T02870085  RH  028%=      5-min Rain = 0
KCR2 200503Z 22006KT 29/09 A2981 RMK A01 T02870087  RH  028%=      5-min Rain = 0
KCR2 200504Z 22005KT 29/09 A2981 RMK A01 T02860091  RH  030%=      5-min Rain = 0
KCR2 200505Z 21006KT 28/09 A2981 RMK A01 T02840091  RH  030%=      5-min Rain = 0
KCR2 200506Z 20007KT 28/09 A2981 RMK A01 T02840092  RH  030%=      5-min Rain = 0
KCR2 200507Z 19008KT 28/09 A2981 RMK A01 T02840093  RH  030%=      5-min Rain = 0
KCR2 200508Z 20008KT 29/10 A2981 RMK A01 T02850098  RH  031%=      5-min Rain = 0
KCR2 200509Z 19010KT 29/10 A2981 RMK A01 T02880101  RH  031%=      5-min Rain = 0
KCR2 200510Z 19012KT 29/11 A2981 RMK A01 T02900107  RH  032%=      5-min Rain = 0
KCR2 200511Z 19012KT 29/11 A2981 RMK A01 T02920110  RH  032%=      5-min Rain = 0
KCR2 200512Z 19010KT 29/11 A2981 RMK A01 T02940113  RH  033%=      5-min Rain = 0
KCR2 200513Z 18010KT 29/11 A2981 RMK A01 T02940114  RH  033%=      5-min Rain = 0
KCR2 200514Z 19010KT 29/12 A2981 RMK A01 T02930118  RH  034%=      5-min Rain = 0
KCR2 200515Z 18009KT 29/12 A2981 RMK A01 T02920120  RH  034%=      5-min Rain = 0
KCR2 200516Z 18010KT 29/12 A2981 RMK A01 T02920124  RH  035%=      5-min Rain = 0
KCR2 200517Z 18011KT 29/13 A2981 RMK A01 T02910131  RH  038%=      5-min Rain = 0
KCR2 200518Z 18012KT 29/14 A2981 RMK A01 T02910137  RH  039%=      5-min Rain = 0
KCR2 200519Z 18011KT 29/14 A2981 RMK A01 T02920140  RH  039%=      5-min Rain = 0
KCR2 200520Z 18011KT 29/14 A2981 RMK A01 T02930142  RH  040%=      5-min Rain = 0
KCR2 200521Z 18012KT 29/15 A2981 RMK A01 T02920146  RH  041%=      5-min Rain = 0
KCR2 200522Z 18012KT 29/15 A2981 RMK A01 T02920150  RH  042%=      5-min Rain = 0
KCR2 200523Z 18012KT 29/15 A2981 RMK A01 T02920152  RH  043%=      5-min Rain = 0
KCR2 200524Z 18013KT 29/16 A2981 RMK A01 T02920156  RH  044%=      5-min Rain = 0
KCR2 200525Z 18011KT 29/16 A2981 RMK A01 T02910157  RH  044%=      5-min Rain = 0
KCR2 200526Z 18010KT 29/16 A2981 RMK A01 T02910158  RH  044%=      5-min Rain = 0
KCR2 200527Z 18010KT 29/16 A2981 RMK A01 T02910159  RH  045%=      5-min Rain = 0
KCR2 200528Z 19011KT 29/16 A2981 RMK A01 T02900160  RH  045%=      5-min Rain = 0
KCR2 200529Z 18013KT 29/16 A2981 RMK A01 T02900163  RH  046%=      5-min Rain = 0
KCR2 200530Z 18010KT 29/16 A2981 RMK A01 T02900163  RH  046%=      5-min Rain = 0
KCR2 200531Z 19011KT 29/16 A2982 RMK A01 T02900164  RH  046%=      5-min Rain = 0
KCR2 200532Z 18010KT 29/16 A2982 RMK A01 T02900164  RH  047%=      5-min Rain = 0
KCR2 200533Z 19011KT 29/17 A2982 RMK A01 T02890165  RH  047%=      5-min Rain = 0
KCR2 200534Z 18011KT 29/17 A2982 RMK A01 T02900166  RH  047%=      5-min Rain = 0
KCR2 200535Z 18012KT 29/17 A2982 RMK A01 T02890166  RH  047%=      5-min Rain = 0
KCR2 200536Z 18014KT 29/17 A2981 RMK A01 T02890167  RH  048%=      5-min Rain = 0
KCR2 200537Z 18013KT 29/17 A2981 RMK A01 T02890167  RH  048%=      5-min Rain = 0
KCR2 200538Z 18013KT 29/17 A2981 RMK A01 T02910168  RH  048%=      5-min Rain = 0
KCR2 200539Z 18012KT 29/17 A2981 RMK A01 T02910168  RH  048%=      5-min Rain = 0
KCR2 200540Z 19011KT 29/17 A2982 RMK A01 T02910168  RH  048%=      5-min Rain = 0
KCR2 200541Z 19013KT 29/17 A2982 RMK A01 T02900168  RH  048%=      5-min Rain = 0
KCR2 200542Z 19013KT 29/17 A2982 RMK A01 T02900169  RH  048%=      5-min Rain = 0
KCR2 200543Z 19014KT 29/17 A2982 RMK A01 T02900168  RH  048%=      5-min Rain = 0
KCR2 200544Z 18013KT 29/17 A2982 RMK A01 T02900168  RH  048%=      5-min Rain = 0
KCR2 200545Z 18010KT 29/17 A2982 RMK A01 T02900168  RH  048%=      5-min Rain = 0
KCR2 200546Z 19011KT 29/17 A2982 RMK A01 T02890168  RH  048%=      5-min Rain = 0
KCR2 200547Z 18012KT 29/17 A2982 RMK A01 T02880167  RH  048%=      5-min Rain = 0
KCR2 200548Z 18012KT 29/17 A2982 RMK A01 T02870167  RH  048%=      5-min Rain = 0
KCR2 200549Z 18011KT 29/17 A2982 RMK A01 T02870167  RH  048%=      5-min Rain = 0
KCR2 200550Z 19008KT 29/17 A2982 RMK A01 T02870166  RH  048%=      5-min Rain = 0
KCR2 200551Z 18010KT 29/17 A2982 RMK A01 T02880167  RH  048%=      5-min Rain = 0
KCR2 200552Z 18011KT 29/17 A2982 RMK A01 T02870166  RH  048%=      5-min Rain = 0
KCR2 200553Z 19010KT 29/17 A2982 RMK A01 T02870165  RH  048%=      5-min Rain = 0
KCR2 200554Z 18011KT 29/17 A2982 RMK A01 T02870165  RH  048%=      5-min Rain = 0
KCR2 200555Z 19009KT 29/17 A2982 RMK A01 T02870165  RH  048%=      5-min Rain = 0
KCR2 200556Z 19010KT 29/17 A2982 RMK A01 T02860166  RH  048%=      5-min Rain = 0
KCR2 200557Z 19010KT 29/16 A2982 RMK A01 T02860164  RH  048%=      5-min Rain = 0
KCR2 200558Z 19011KT 29/16 A2982 RMK A01 T02850163  RH  048%=      5-min Rain = 0
KCR2 200559Z 18012KT 29/16 A2982 RMK A01 T02850162  RH  047%=      5-min Rain = 0
KCR2 200600Z 19011KT 29/16 A2982 RMK A01 T02850162  RH  047%=      5-min Rain = 0
KCR2 200601Z 19010KT 29/16 A2982 RMK A01 T02850160  RH  047%=      5-min Rain = 0
KCR2 200602Z 18010KT 29/16 A2982 RMK A01 T02850160  RH  047%=      5-min Rain = 0
KCR2 200603Z 19011KT 29/16 A2982 RMK A01 T02850159  RH  046%=      5-min Rain = 0
KCR2 200604Z 19009KT 29/16 A2982 RMK A01 T02850159  RH  046%=      5-min Rain = 0
KCR2 200605Z 18009KT 29/16 A2982 RMK A01 T02850158  RH  046%=      5-min Rain = 0
KCR2 200606Z 19010KT 29/16 A2982 RMK A01 T02850158  RH  046%=      5-min Rain = 0
KCR2 200607Z 19011KT 28/16 A2982 RMK A01 T02840157  RH  046%=      5-min Rain = 0
KCR2 200608Z 19009KT 28/16 A2982 RMK A01 T02840156  RH  046%=      5-min Rain = 0
KCR2 200609Z 20006KT 28/16 A2982 RMK A01 T02840155  RH  046%=      5-min Rain = 0
KCR2 200610Z 20007KT 28/16 A2982 RMK A01 T02840155  RH  046%=      5-min Rain = 0
KCR2 200611Z 19009KT 28/15 A2982 RMK A01 T02830153  RH  045%=      5-min Rain = 0
KCR2 200612Z 19008KT 28/15 A2982 RMK A01 T02830152  RH  045%=      5-min Rain = 0
KCR2 200613Z 19009KT 28/15 A2982 RMK A01 T02820152  RH  045%=      5-min Rain = 0
KCR2 200614Z 18010KT 28/15 A2982 RMK A01 T02810153  RH  045%=      5-min Rain = 0
KCR2 200615Z 19009KT 28/15 A2982 RMK A01 T02830154  RH  046%=      5-min Rain = 0
KCR2 200616Z 19009KT 28/15 A2982 RMK A01 T02830154  RH  045%=      5-min Rain = 0
KCR2 200617Z 18010KT 28/15 A2982 RMK A01 T02820154  RH  046%=      5-min Rain = 0
KCR2 200618Z 18010KT 28/16 A2982 RMK A01 T02820155  RH  046%=      5-min Rain = 0
KCR2 200619Z 19009KT 28/16 A2982 RMK A01 T02820155  RH  046%=      5-min Rain = 0
KCR2 200620Z 18009KT 28/16 A2982 RMK A01 T02820155  RH  046%=      5-min Rain = 0
KCR2 200621Z 19010KT 28/16 A2982 RMK A01 T02820155  RH  046%=      5-min Rain = 0
KCR2 200622Z 19010KT 28/16 A2982 RMK A01 T02820156  RH  046%=      5-min Rain = 0
KCR2 200623Z 18010KT 28/16 A2982 RMK A01 T02810156  RH  046%=      5-min Rain = 0
KCR2 200624Z 18008KT 28/16 A2982 RMK A01 T02810155  RH  046%=      5-min Rain = 0
KCR2 200625Z 19008KT 28/15 A2982 RMK A01 T02810153  RH  046%=      5-min Rain = 0
KCR2 200626Z 18008KT 28/15 A2982 RMK A01 T02800151  RH  045%=      5-min Rain = 0
KCR2 200627Z 19008KT 28/15 A2982 RMK A01 T02800151  RH  045%=      5-min Rain = 0
KCR2 200628Z 18009KT 28/15 A2982 RMK A01 T02800151  RH  045%=      5-min Rain = 0
KCR2 200629Z 18009KT 28/15 A2982 RMK A01 T02790151  RH  046%=      5-min Rain = 0
KCR2 200630Z 18009KT 28/15 A2982 RMK A01 T02790151  RH  046%=      5-min Rain = 0
KCR2 200631Z 18010KT 28/15 A2982 RMK A01 T02790151  RH  046%=      5-min Rain = 0
KCR2 200632Z 18008KT 28/15 A2982 RMK A01 T02790149  RH  045%=      5-min Rain = 0
KCR2 200633Z 18009KT 28/15 A2982 RMK A01 T02790149  RH  045%=      5-min Rain = 0
KCR2 200634Z 18009KT 28/15 A2982 RMK A01 T02790149  RH  045%=      5-min Rain = 0
KCR2 200635Z 18009KT 28/15 A2982 RMK A01 T02790148  RH  045%=      5-min Rain = 0
KCR2 200636Z 19009KT 28/15 A2982 RMK A01 T02790148  RH  045%=      5-min Rain = 0
KCR2 200637Z 19009KT 28/15 A2982 RMK A01 T02790148  RH  045%=      5-min Rain = 0
KCR2 200638Z 19009KT 28/15 A2982 RMK A01 T02790148  RH  045%=      5-min Rain = 0
KCR2 200639Z 19009KT 28/15 A2982 RMK A01 T02780148  RH  045%=      5-min Rain = 0
KCR2 200640Z 19009KT 28/15 A2982 RMK A01 T02770147  RH  045%=      5-min Rain = 0
KCR2 200641Z 18009KT 28/15 A2982 RMK A01 T02770147  RH  045%=      5-min Rain = 0
KCR2 200642Z 18010KT 28/15 A2982 RMK A01 T02770147  RH  045%=      5-min Rain = 0
KCR2 200643Z 19009KT 28/15 A2982 RMK A01 T02780146  RH  045%=      5-min Rain = 0
KCR2 200644Z 19008KT 28/15 A2982 RMK A01 T02780147  RH  045%=      5-min Rain = 0
KCR2 200645Z 19008KT 28/15 A2982 RMK A01 T02770146  RH  045%=      5-min Rain = 0
KCR2 200646Z 19009KT 28/15 A2982 RMK A01 T02760146  RH  045%=      5-min Rain = 0
KCR2 200647Z 19009KT 28/15 A2982 RMK A01 T02750146  RH  045%=      5-min Rain = 0
KCR2 200648Z 19009KT 27/15 A2982 RMK A01 T02740145  RH  045%=      5-min Rain = 0
KCR2 200649Z 19009KT 28/15 A2982 RMK A01 T02750146  RH  045%=      5-min Rain = 0
KCR2 200650Z 19009KT 27/15 A2982 RMK A01 T02740146  RH  045%=      5-min Rain = 0
KCR2 200651Z 19009KT 27/15 A2982 RMK A01 T02740146  RH  045%=      5-min Rain = 0
KCR2 200652Z 19009KT 27/15 A2982 RMK A01 T02730145  RH  046%=      5-min Rain = 0
KCR2 200653Z 19009KT 27/14 A2982 RMK A01 T02720144  RH  046%=      5-min Rain = 0
KCR2 200654Z 19008KT 27/15 A2982 RMK A01 T02720145  RH  046%=      5-min Rain = 0
KCR2 200655Z 19009KT 27/14 A2982 RMK A01 T02710144  RH  046%=      5-min Rain = 0
KCR2 200656Z 19008KT 27/14 A2982 RMK A01 T02700143  RH  046%=      5-min Rain = 0
KCR2 200657Z 19009KT 27/14 A2982 RMK A01 T02710143  RH  046%=      5-min Rain = 0
KCR2 200658Z 19009KT 27/14 A2982 RMK A01 T02700141  RH  045%=      5-min Rain = 0
KCR2 200659Z 19009KT 27/14 A2982 RMK A01 T02700139  RH  044%=      5-min Rain = 0
KCR2 200700Z 19008KT 27/14 A2982 RMK A01 T02710138  RH  044%=      5-min Rain = 0
KCR2 200701Z 20008KT 27/14 A2982 RMK A01 T02710138  RH  044%=      5-min Rain = 0
KCR2 200702Z 20009KT 27/14 A2982 RMK A01 T02700135  RH  043%=      5-min Rain = 0
KCR2 200703Z 20008KT 27/13 A2982 RMK A01 T02710134  RH  043%=      5-min Rain = 0
KCR2 200704Z 19008KT 27/13 A2982 RMK A01 T02720134  RH  042%=      5-min Rain = 0
KCR2 200705Z 19008KT 27/13 A2982 RMK A01 T02720133  RH  042%=      5-min Rain = 0
KCR2 200706Z 19008KT 27/13 A2982 RMK A01 T02710132  RH  042%=      5-min Rain = 0
KCR2 200707Z 19008KT 27/13 A2982 RMK A01 T02710132  RH  042%=      5-min Rain = 0
KCR2 200708Z 19008KT 27/13 A2982 RMK A01 T02710132  RH  042%=      5-min Rain = 0
KCR2 200709Z 19008KT 27/13 A2982 RMK A01 T02710133  RH  043%=      5-min Rain = 0
KCR2 200710Z 19008KT 27/13 A2982 RMK A01 T02700133  RH  043%=      5-min Rain = 0
KCR2 200711Z 19009KT 27/13 A2982 RMK A01 T02700134  RH  043%=      5-min Rain = 0
KCR2 200712Z 19009KT 27/13 A2982 RMK A01 T02700134  RH  043%=      5-min Rain = 0
KCR2 200713Z 19008KT 27/13 A2982 RMK A01 T02690133  RH  043%=      5-min Rain = 0
KCR2 200714Z 19008KT 27/13 A2982 RMK A01 T02690133  RH  043%=      5-min Rain = 0
KCR2 200715Z 19009KT 27/13 A2982 RMK A01 T02690134  RH  043%=      5-min Rain = 0
KCR2 200716Z 19009KT 27/13 A2982 RMK A01 T02680134  RH  044%=      5-min Rain = 0
KCR2 200717Z 19010KT 27/13 A2982 RMK A01 T02670134  RH  044%=      5-min Rain = 0
KCR2 200718Z 18010KT 27/14 A2982 RMK A01 T02670135  RH  044%=      5-min Rain = 0
KCR2 200719Z 18010KT 27/13 A2982 RMK A01 T02670134  RH  044%=      5-min Rain = 0
KCR2 200720Z 18009KT 27/13 A2982 RMK A01 T02670134  RH  044%=      5-min Rain = 0
KCR2 200721Z 18009KT 27/14 A2982 RMK A01 T02680135  RH  044%=      5-min Rain = 0
KCR2 200722Z 18008KT 27/14 A2982 RMK A01 T02680135  RH  044%=      5-min Rain = 0
KCR2 200723Z 18009KT 27/14 A2982 RMK A01 T02680135  RH  044%=      5-min Rain = 0
KCR2 200724Z 18008KT 27/14 A2982 RMK A01 T02680136  RH  044%=      5-min Rain = 0
KCR2 200725Z 19008KT 27/14 A2982 RMK A01 T02670136  RH  044%=      5-min Rain = 0
KCR2 200726Z 18009KT 27/14 A2982 RMK A01 T02670136  RH  045%=      5-min Rain = 0
KCR2 200727Z 18010KT 27/14 A2982 RMK A01 T02670136  RH  044%=      5-min Rain = 0
KCR2 200728Z 18009KT 27/14 A2982 RMK A01 T02680135  RH  044%=      5-min Rain = 0
KCR2 200729Z 18009KT 27/13 A2982 RMK A01 T02680134  RH  044%=      5-min Rain = 0
KCR2 200730Z 18009KT 27/13 A2982 RMK A01 T02680133  RH  043%=      5-min Rain = 0
KCR2 200731Z 19008KT 27/13 A2982 RMK A01 T02680133  RH  043%=      5-min Rain = 0
KCR2 200732Z 19009KT 27/13 A2982 RMK A01 T02670133  RH  043%=      5-min Rain = 0
KCR2 200733Z 18008KT 27/13 A2982 RMK A01 T02660133  RH  044%=      5-min Rain = 0
KCR2 200734Z 19008KT 27/13 A2982 RMK A01 T02650133  RH  044%=      5-min Rain = 0
KCR2 200735Z 19008KT 26/13 A2982 RMK A01 T02640132  RH  044%=      5-min Rain = 0
KCR2 200736Z 19007KT 26/13 A2982 RMK A01 T02640132  RH  044%=      5-min Rain = 0
KCR2 200737Z 19008KT 26/13 A2982 RMK A01 T02630132  RH  044%=      5-min Rain = 0
KCR2 200738Z 19009KT 26/13 A2982 RMK A01 T02620132  RH  045%=      5-min Rain = 0
KCR2 200739Z 20008KT 26/13 A2982 RMK A01 T02610130  RH  044%=      5-min Rain = 0
KCR2 200740Z 20008KT 26/13 A2982 RMK A01 T02610129  RH  044%=      5-min Rain = 0
KCR2 200741Z 19009KT 26/13 A2982 RMK A01 T02610129  RH  044%=      5-min Rain = 0
KCR2 200742Z 19009KT 26/13 A2982 RMK A01 T02610127  RH  043%=      5-min Rain = 0
KCR2 200743Z 19009KT 26/13 A2982 RMK A01 T02620126  RH  043%=      5-min Rain = 0
KCR2 200744Z 19010KT 26/13 A2982 RMK A01 T02630126  RH  043%=      5-min Rain = 0
KCR2 200745Z 19009KT 26/13 A2982 RMK A01 T02640125  RH  042%=      5-min Rain = 0
KCR2 200746Z 19009KT 26/13 A2982 RMK A01 T02640126  RH  042%=      5-min Rain = 0
KCR2 200747Z 19009KT 26/13 A2982 RMK A01 T02640126  RH  043%=      5-min Rain = 0
KCR2 200748Z 19009KT 26/13 A2982 RMK A01 T02630126  RH  043%=      5-min Rain = 0
KCR2 200749Z 19009KT 26/13 A2982 RMK A01 T02630126  RH  043%=      5-min Rain = 0
KCR2 200750Z 19009KT 26/13 A2982 RMK A01 T02630126  RH  043%=      5-min Rain = 0
KCR2 200751Z 19009KT 26/13 A2982 RMK A01 T02620126  RH  043%=      5-min Rain = 0
KCR2 200752Z 19009KT 26/13 A2982 RMK A01 T02620125  RH  043%=      5-min Rain = 0
KCR2 200753Z 19009KT 26/13 A2982 RMK A01 T02620125  RH  043%=      5-min Rain = 0
KCR2 200754Z 19009KT 26/13 A2982 RMK A01 T02610125  RH  043%=      5-min Rain = 0
KCR2 200755Z 19009KT 26/12 A2982 RMK A01 T02600124  RH  043%=      5-min Rain = 0
KCR2 200756Z 19009KT 26/12 A2982 RMK A01 T02600123  RH  043%=      5-min Rain = 0
KCR2 200757Z 19009KT 26/12 A2981 RMK A01 T02590122  RH  043%=      5-min Rain = 0
KCR2 200758Z 19009KT 26/12 A2981 RMK A01 T02590121  RH  042%=      5-min Rain = 0
KCR2 200759Z 19009KT 26/12 A2981 RMK A01 T02590120  RH  042%=      5-min Rain = 0
KCR2 200800Z 20009KT 26/12 A2981 RMK A01 T02590118  RH  041%=      5-min Rain = 0
KCR2 200801Z 20009KT 26/12 A2981 RMK A01 T02580115  RH  041%=      5-min Rain = 0
KCR2 200802Z 19009KT 26/11 A2981 RMK A01 T02590114  RH  040%=      5-min Rain = 0
KCR2 200803Z 19009KT 26/11 A2981 RMK A01 T02600112  RH  040%=      5-min Rain = 0
KCR2 200804Z 20008KT 26/11 A2981 RMK A01 T02610111  RH  039%=      5-min Rain = 0
KCR2 200805Z 20009KT 26/11 A2981 RMK A01 T02620110  RH  039%=      5-min Rain = 0
KCR2 200806Z 20009KT 26/11 A2981 RMK A01 T02620109  RH  038%=      5-min Rain = 0
KCR2 200807Z 20008KT 26/11 A2981 RMK A01 T02620108  RH  038%=      5-min Rain = 0
KCR2 200808Z 20008KT 26/11 A2981 RMK A01 T02630108  RH  038%=      5-min Rain = 0
KCR2 200809Z 20008KT 26/11 A2981 RMK A01 T02640108  RH  038%=      5-min Rain = 0
KCR2 200810Z 20008KT 26/11 A2981 RMK A01 T02630107  RH  038%=      5-min Rain = 0
KCR2 200811Z 20008KT 26/11 A2981 RMK A01 T02610106  RH  038%=      5-min Rain = 0
KCR2 200812Z 20009KT 26/11 A2981 RMK A01 T02600106  RH  038%=      5-min Rain = 0
KCR2 200813Z 20009KT 26/11 A2981 RMK A01 T02590106  RH  038%=      5-min Rain = 0
KCR2 200814Z 20008KT 26/11 A2981 RMK A01 T02590106  RH  038%=      5-min Rain = 0
KCR2 200815Z 20008KT 26/11 A2981 RMK A01 T02590105  RH  038%=      5-min Rain = 0
KCR2 200816Z 20009KT 26/11 A2981 RMK A01 T02580105  RH  038%=      5-min Rain = 0
KCR2 200817Z 21008KT 26/11 A2981 RMK A01 T02580105  RH  038%=      5-min Rain = 0
KCR2 200818Z 21007KT 26/11 A2981 RMK A01 T02570105  RH  038%=      5-min Rain = 0
KCR2 200819Z 21007KT 26/11 A2981 RMK A01 T02550106  RH  039%=      5-min Rain = 0
KCR2 200820Z 21008KT 25/11 A2981 RMK A01 T02530106  RH  039%=      5-min Rain = 0
KCR2 200821Z 21008KT 25/10 A2981 RMK A01 T02510104  RH  039%=      5-min Rain = 0
KCR2 200822Z 21008KT 25/10 A2981 RMK A01 T02500103  RH  040%=      5-min Rain = 0
KCR2 200823Z 20008KT 25/10 A2981 RMK A01 T02500103  RH  040%=      5-min Rain = 0
KCR2 200824Z 20008KT 25/10 A2981 RMK A01 T02500102  RH  039%=      5-min Rain = 0
KCR2 200825Z 20009KT 25/10 A2981 RMK A01 T02500101  RH  039%=      5-min Rain = 0
KCR2 200826Z 20008KT 25/10 A2981 RMK A01 T02500100  RH  039%=      5-min Rain = 0
KCR2 200827Z 20008KT 25/10 A2981 RMK A01 T02510100  RH  038%=      5-min Rain = 0
KCR2 200828Z 20008KT 25/10 A298 RMK A01 T02500098  RH  038%=      5-min Rain = 0
KCR2 200829Z 21008KT 25/10 A298 RMK A01 T02500098  RH  038%=      5-min Rain = 0
KCR2 200830Z 20008KT 25/10 A298 RMK A01 T02500098  RH  038%=      5-min Rain = 0
KCR2 200831Z 21008KT 25/10 A298 RMK A01 T02500097  RH  038%=      5-min Rain = 0
KCR2 200832Z 21008KT 25/10 A298 RMK A01 T02500097  RH  038%=      5-min Rain = 0
KCR2 200833Z 21007KT 25/10 A298 RMK A01 T02500097  RH  038%=      5-min Rain = 0
KCR2 200834Z 21008KT 25/10 A298 RMK A01 T02490096  RH  038%=      5-min Rain = 0
KCR2 200835Z 20008KT 25/10 A298 RMK A01 T02480096  RH  038%=      5-min Rain = 0
KCR2 200836Z 20008KT 25/10 A298 RMK A01 T02480096  RH  038%=      5-min Rain = 0
KCR2 200837Z 20008KT 25/10 A298 RMK A01 T02480095  RH  038%=      5-min Rain = 0
KCR2 200838Z 20008KT 25/10 A298 RMK A01 T02490095  RH  038%=      5-min Rain = 0
KCR2 200839Z 20009KT 25/10 A298 RMK A01 T02500095  RH  037%=      5-min Rain = 0
KCR2 200840Z 20008KT 25/09 A298 RMK A01 T02500094  RH  037%=      5-min Rain = 0
KCR2 200841Z 20008KT 25/09 A298 RMK A01 T02510094  RH  037%=      5-min Rain = 0
KCR2 200842Z 20008KT 25/09 A298 RMK A01 T02510094  RH  037%=      5-min Rain = 0
KCR2 200843Z 20008KT 25/10 A298 RMK A01 T02510095  RH  037%=      5-min Rain = 0
KCR2 200844Z 20007KT 25/10 A298 RMK A01 T02510095  RH  037%=      5-min Rain = 0
KCR2 200845Z 20007KT 25/10 A298 RMK A01 T02500095  RH  037%=      5-min Rain = 0
KCR2 200846Z 20007KT 25/10 A298 RMK A01 T02500096  RH  038%=      5-min Rain = 0
KCR2 200847Z 19007KT 25/10 A298 RMK A01 T02500096  RH  038%=      5-min Rain = 0
KCR2 200848Z 19007KT 25/10 A298 RMK A01 T02490096  RH  038%=      5-min Rain = 0
KCR2 200849Z 19007KT 25/10 A298 RMK A01 T02480097  RH  038%=      5-min Rain = 0
KCR2 200850Z 19007KT 25/10 A298 RMK A01 T02480097  RH  038%=      5-min Rain = 0
KCR2 200851Z 19007KT 25/10 A298 RMK A01 T02470097  RH  039%=      5-min Rain = 0
KCR2 200852Z 19008KT 25/10 A298 RMK A01 T02460098  RH  039%=      5-min Rain = 0
KCR2 200853Z 19008KT 25/10 A298 RMK A01 T02450099  RH  040%=      5-min Rain = 0
KCR2 200854Z 20007KT 24/10 A298 RMK A01 T02440099  RH  040%=      5-min Rain = 0
KCR2 200855Z 20007KT 24/10 A298 RMK A01 T02440099  RH  040%=      5-min Rain = 0
KCR2 200856Z 20007KT 25/10 A2981 RMK A01 T02450100  RH  040%=      5-min Rain = 0
KCR2 200857Z 20007KT 24/10 A2981 RMK A01 T02440099  RH  040%=      5-min Rain = 0
KCR2 200858Z 20007KT 24/10 A2981 RMK A01 T02430098  RH  040%=      5-min Rain = 0
KCR2 200859Z 20007KT 24/10 A2981 RMK A01 T02430098  RH  040%=      5-min Rain = 0
KCR2 200900Z 20007KT 24/10 A2981 RMK A01 T02420097  RH  040%=      5-min Rain = 0
KCR2 200901Z 20007KT 24/10 A2981 RMK A01 T02420097  RH  040%=      5-min Rain = 0
KCR2 200902Z 20007KT 24/10 A2981 RMK A01 T02420097  RH  040%=      5-min Rain = 0
KCR2 200903Z 20007KT 24/10 A2981 RMK A01 T02420097  RH  040%=      5-min Rain = 0
KCR2 200904Z 20007KT 24/10 A2981 RMK A01 T02420097  RH  040%=      5-min Rain = 0
KCR2 200905Z 20007KT 24/10 A2981 RMK A01 T02420097  RH  040%=      5-min Rain = 0
KCR2 200906Z 21007KT 24/10 A2981 RMK A01 T02410096  RH  040%=      5-min Rain = 0
KCR2 200907Z 20007KT 24/10 A298 RMK A01 T02400096  RH  040%=      5-min Rain = 0
KCR2 200908Z 20007KT 24/10 A298 RMK A01 T02400097  RH  040%=      5-min Rain = 0
KCR2 200909Z 21007KT 24/10 A298 RMK A01 T02400097  RH  040%=      5-min Rain = 0
KCR2 200910Z 21007KT 24/10 A298 RMK A01 T02400096  RH  040%=      5-min Rain = 0
KCR2 200911Z 21007KT 24/10 A298 RMK A01 T02410096  RH  040%=      5-min Rain = 0
KCR2 200912Z 21007KT 24/10 A298 RMK A01 T02410096  RH  040%=      5-min Rain = 0
KCR2 200913Z 21007KT 24/10 A298 RMK A01 T02410095  RH  040%=      5-min Rain = 0
KCR2 200914Z 21007KT 24/10 A298 RMK A01 T02420095  RH  040%=      5-min Rain = 0
KCR2 200915Z 21008KT 24/10 A298 RMK A01 T02410095  RH  040%=      5-min Rain = 0
KCR2 200916Z 21008KT 24/10 A2981 RMK A01 T02400095  RH  040%=      5-min Rain = 0
KCR2 200917Z 21008KT 24/10 A2981 RMK A01 T02400095  RH  040%=      5-min Rain = 0
KCR2 200918Z 21007KT 24/10 A2981 RMK A01 T02390095  RH  040%=      5-min Rain = 0
KCR2 200919Z 20008KT 24/10 A2981 RMK A01 T02380095  RH  040%=      5-min Rain = 0
KCR2 200920Z 21008KT 24/10 A2981 RMK A01 T02370095  RH  040%=      5-min Rain = 0
KCR2 200921Z 21008KT 24/10 A2981 RMK A01 T02350095  RH  041%=      5-min Rain = 0
KCR2 200922Z 21008KT 23/09 A2981 RMK A01 T02340094  RH  041%=      5-min Rain = 0
KCR2 200923Z 21008KT 23/09 A2981 RMK A01 T02320094  RH  041%=      5-min Rain = 0
KCR2 200924Z 22006KT 23/09 A2981 RMK A01 T02310093  RH  041%=      5-min Rain = 0
KCR2 200925Z 23004KT 23/10 A2981 RMK A01 T02290100  RH  044%=      5-min Rain = 0
KCR2 200926Z 24003KT 23/10 A2981 RMK A01 T02260102  RH  045%=      5-min Rain = 0
KCR2 200927Z 22004KT 22/10 A2981 RMK A01 T02220101  RH  046%=      5-min Rain = 0
KCR2 200928Z 21004KT 22/10 A2981 RMK A01 T02210101  RH  046%=      5-min Rain = 0
KCR2 200929Z 20005KT 22/10 A2981 RMK A01 T02210102  RH  047%=      5-min Rain = 0
KCR2 200930Z 20005KT 22/10 A2981 RMK A01 T02220103  RH  047%=      5-min Rain = 0
KCR2 200931Z 20005KT 23/10 A2981 RMK A01 T02250104  RH  046%=      5-min Rain = 0
KCR2 200932Z 20006KT 23/10 A2981 RMK A01 T02270102  RH  045%=      5-min Rain = 0
KCR2 200933Z 20006KT 23/10 A2981 RMK A01 T02300097  RH  043%=      5-min Rain = 0
KCR2 200934Z 21006KT 23/09 A2981 RMK A01 T02310092  RH  041%=      5-min Rain = 0
KCR2 200935Z 21006KT 23/09 A2981 RMK A01 T02320090  RH  040%=      5-min Rain = 0
KCR2 200936Z 21006KT 23/09 A2981 RMK A01 T02310094  RH  042%=      5-min Rain = 0
KCR2 200937Z 21006KT 23/09 A2981 RMK A01 T02280094  RH  042%=      5-min Rain = 0
KCR2 200938Z 20006KT 23/09 A2981 RMK A01 T02260093  RH  043%=      5-min Rain = 0
KCR2 200939Z 21005KT 22/09 A2981 RMK A01 T02240094  RH  043%=      5-min Rain = 0
KCR2 200940Z 21005KT 22/10 A2981 RMK A01 T02210098  RH  046%=      5-min Rain = 0
KCR2 200941Z 21004KT 21/10 A2981 RMK A01 T02140097  RH  047%=      5-min Rain = 0
KCR2 200942Z 21004KT 21/10 A2981 RMK A01 T02090097  RH  048%=      5-min Rain = 0
KCR2 200943Z 21004KT 21/10 A2981 RMK A01 T02050096  RH  049%=      5-min Rain = 0
KCR2 200944Z 21004KT 20/10 A2981 RMK A01 T02020095  RH  050%=      5-min Rain = 0
KCR2 200945Z 22005KT 21/09 A2981 RMK A01 T02050094  RH  049%=      5-min Rain = 0
KCR2 200946Z 22005KT 21/09 A2981 RMK A01 T02080092  RH  047%=      5-min Rain = 0
KCR2 200947Z 22005KT 21/09 A2981 RMK A01 T02110089  RH  045%=      5-min Rain = 0
KCR2 200948Z 22004KT 21/09 A2981 RMK A01 T02140091  RH  045%=      5-min Rain = 0
KCR2 200949Z 22004KT 22/10 A2981 RMK A01 T02160095  RH  046%=      5-min Rain = 0
KCR2 200950Z 22004KT 22/10 A2981 RMK A01 T02180096  RH  046%=      5-min Rain = 0
KCR2 200951Z 22004KT 22/10 A2981 RMK A01 T02180097  RH  046%=      5-min Rain = 0
KCR2 200952Z 22003KT 22/10 A2981 RMK A01 T02160096  RH  046%=      5-min Rain = 0
KCR2 200953Z 22003KT 21/10 A2981 RMK A01 T02130095  RH  047%=      5-min Rain = 0
KCR2 200954Z 22003KT 21/10 A2981 RMK A01 T02100095  RH  048%=      5-min Rain = 0
KCR2 200955Z 21004KT 21/10 A2981 RMK A01 T02090095  RH  048%=      5-min Rain = 0
KCR2 200956Z 22005KT 21/10 A2981 RMK A01 T02090095  RH  048%=      5-min Rain = 0
KCR2 200957Z 22004KT 21/09 A2981 RMK A01 T02090094  RH  048%=      5-min Rain = 0
KCR2 200958Z 23004KT 21/09 A2981 RMK A01 T02080094  RH  048%=      5-min Rain = 0
KCR2 200959Z 23004KT 21/09 A2981 RMK A01 T02060093  RH  048%=      5-min Rain = 0
KCR2 201000Z 24004KT 20/09 A2981 RMK A01 T02040093  RH  049%=      5-min Rain = 0
KCR2 201001Z 23004KT 20/09 A2981 RMK A01 T02030094  RH  050%=      5-min Rain = 0
KCR2 201002Z 23003KT 20/10 A2981 RMK A01 T02030095  RH  050%=      5-min Rain = 0
KCR2 201003Z 23003KT 20/10 A2981 RMK A01 T02040095  RH  049%=      5-min Rain = 0
KCR2 201004Z 24002KT 20/10 A2981 RMK A01 T02020095  RH  050%=      5-min Rain = 0
KCR2 201005Z 25002KT 20/10 A2981 RMK A01 T02000095  RH  051%=      5-min Rain = 0
KCR2 201006Z 25002KT 20/10 A2981 RMK A01 T01990095  RH  051%=      5-min Rain = 0
KCR2 201007Z 24003KT 20/09 A2981 RMK A01 T01990094  RH  051%=      5-min Rain = 0
KCR2 201008Z 22003KT 20/09 A2981 RMK A01 T02000094  RH  050%=      5-min Rain = 0
KCR2 201009Z 22003KT 20/09 A2981 RMK A01 T02000094  RH  050%=      5-min Rain = 0
KCR2 201010Z 23002KT 20/10 A2982 RMK A01 T02010095  RH  050%=      5-min Rain = 0
KCR2 201011Z 26002KT 20/10 A2982 RMK A01 T02000095  RH  051%=      5-min Rain = 0
KCR2 201012Z 25002KT 20/10 A2982 RMK A01 T02010097  RH  051%=      5-min Rain = 0
KCR2 201013Z 23003KT 20/10 A2982 RMK A01 T02020097  RH  051%=      5-min Rain = 0
KCR2 201014Z 24002KT 20/10 A2982 RMK A01 T02030097  RH  051%=      5-min Rain = 0
KCR2 201015Z 24002KT 21/10 A2982 RMK A01 T02050097  RH  050%=      5-min Rain = 0
KCR2 201016Z 25002KT 20/10 A2982 RMK A01 T02040097  RH  050%=      5-min Rain = 0
KCR2 201017Z 26001KT 20/10 A2982 RMK A01 T02020097  RH  051%=      5-min Rain = 0
KCR2 201018Z 26002KT 20/10 A2982 RMK A01 T01990096  RH  051%=      5-min Rain = 0
KCR2 201019Z 25001KT 20/10 A2982 RMK A01 T01970097  RH  052%=      5-min Rain = 0
KCR2 201020Z 26001KT 20/10 A2982 RMK A01 T01950098  RH  053%=      5-min Rain = 0
KCR2 201021Z 25001KT 19/10 A2982 RMK A01 T01940099  RH  054%=      5-min Rain = 0
KCR2 201022Z 25001KT 19/10 A2982 RMK A01 T01930101  RH  055%=      5-min Rain = 0
KCR2 201023Z 27001KT 19/10 A2982 RMK A01 T01930101  RH  055%=      5-min Rain = 0
KCR2 201024Z 27001KT 19/10 A2982 RMK A01 T01930100  RH  055%=      5-min Rain = 0
KCR2 201025Z 26002KT 19/10 A2982 RMK A01 T01920099  RH  055%=      5-min Rain = 0
KCR2 201026Z 24002KT 19/10 A2982 RMK A01 T01910103  RH  057%=      5-min Rain = 0
KCR2 201027Z 25002KT 19/10 A2982 RMK A01 T01910103  RH  057%=      5-min Rain = 0
KCR2 201028Z 24002KT 19/10 A2982 RMK A01 T01900101  RH  056%=      5-min Rain = 0
KCR2 201029Z 24002KT 19/10 A2982 RMK A01 T01900102  RH  056%=      5-min Rain = 0
KCR2 201030Z 22003KT 19/10 A2982 RMK A01 T01900101  RH  056%=      5-min Rain = 0
KCR2 201031Z 22003KT 19/10 A2982 RMK A01 T01890103  RH  057%=      5-min Rain = 0
KCR2 201032Z 21003KT 19/10 A2982 RMK A01 T01880100  RH  057%=      5-min Rain = 0
KCR2 201033Z 21003KT 19/10 A2982 RMK A01 T01880101  RH  057%=      5-min Rain = 0
KCR2 201034Z 21003KT 19/10 A2982 RMK A01 T01880101  RH  057%=      5-min Rain = 0
KCR2 201035Z 19002KT 19/10 A2982 RMK A01 T01870099  RH  057%=      5-min Rain = 0
KCR2 201036Z 11001KT 19/10 A2982 RMK A01 T01880096  RH  055%=      5-min Rain = 0
KCR2 201037Z 10003KT 19/09 A2982 RMK A01 T01870094  RH  054%=      5-min Rain = 0
KCR2 201038Z 12002KT 19/09 A2982 RMK A01 T01860094  RH  055%=      5-min Rain = 0
KCR2 201039Z 14001KT 18/10 A2983 RMK A01 T01840095  RH  056%=      5-min Rain = 0
KCR2 201040Z 14001KT 18/09 A2982 RMK A01 T01830094  RH  056%=      5-min Rain = 0
KCR2 201041Z 13001KT 18/10 A2983 RMK A01 T01810095  RH  057%=      5-min Rain = 0
KCR2 201042Z 12001KT 18/10 A2983 RMK A01 T01810095  RH  057%=      5-min Rain = 0
KCR2 201043Z 11001KT 18/10 A2983 RMK A01 T01800095  RH  057%=      5-min Rain = 0
KCR2 201044Z 09002KT 18/10 A2983 RMK A01 T01790095  RH  058%=      5-min Rain = 0
KCR2 201045Z 09002KT 18/10 A2983 RMK A01 T01790095  RH  058%=      5-min Rain = 0
KCR2 201046Z 08002KT 18/09 A2983 RMK A01 T01780094  RH  058%=      5-min Rain = 0
KCR2 201047Z 08002KT 18/09 A2983 RMK A01 T01770094  RH  058%=      5-min Rain = 0
KCR2 201048Z 07002KT 18/10 A2983 RMK A01 T01770095  RH  058%=      5-min Rain = 0
KCR2 201049Z 06002KT 18/10 A2983 RMK A01 T01770095  RH  059%=      5-min Rain = 0
KCR2 201050Z 06002KT 18/10 A2983 RMK A01 T01770096  RH  059%=      5-min Rain = 0
KCR2 201051Z 06002KT 18/10 A2983 RMK A01 T01780097  RH  059%=      5-min Rain = 0
KCR2 201052Z 06002KT 18/10 A2983 RMK A01 T01790097  RH  059%=      5-min Rain = 0
KCR2 201053Z 06002KT 18/10 A2983 RMK A01 T01800098  RH  059%=      5-min Rain = 0
KCR2 201054Z 05002KT 18/10 A2983 RMK A01 T01800098  RH  059%=      5-min Rain = 0
KCR2 201055Z 05001KT 18/10 A2983 RMK A01 T01810098  RH  058%=      5-min Rain = 0
KCR2 201056Z 05002KT 18/10 A2983 RMK A01 T01810098  RH  058%=      5-min Rain = 0
KCR2 201057Z 06002KT 18/10 A2983 RMK A01 T01800098  RH  058%=      5-min Rain = 0
KCR2 201058Z 07002KT 18/10 A2983 RMK A01 T01800097  RH  058%=      5-min Rain = 0
KCR2 201059Z 07003KT 18/10 A2983 RMK A01 T01800097  RH  059%=      5-min Rain = 0
KCR2 201100Z 07004KT 18/10 A2983 RMK A01 T01790097  RH  059%=      5-min Rain = 0
KCR2 201101Z 07004KT 18/10 A2983 RMK A01 T01790097  RH  058%=      5-min Rain = 0
KCR2 201102Z 07005KT 18/10 A2983 RMK A01 T01800098  RH  058%=      5-min Rain = 0
KCR2 201103Z 07005KT 18/10 A2983 RMK A01 T01810097  RH  058%=      5-min Rain = 0
KCR2 201104Z 06005KT 18/10 A2983 RMK A01 T01810096  RH  058%=      5-min Rain = 0
KCR2 201105Z 06005KT 18/10 A2983 RMK A01 T01790096  RH  058%=      5-min Rain = 0
KCR2 201106Z 06005KT 18/10 A2983 RMK A01 T01780096  RH  059%=      5-min Rain = 0
KCR2 201107Z 06005KT 18/10 A2983 RMK A01 T01770096  RH  059%=      5-min Rain = 0
KCR2 201108Z 06005KT 18/10 A2983 RMK A01 T01760096  RH  060%=      5-min Rain = 0
KCR2 201109Z 06005KT 18/10 A2983 RMK A01 T01760096  RH  060%=      5-min Rain = 0
KCR2 201110Z 06005KT 18/10 A2983 RMK A01 T01750096  RH  060%=      5-min Rain = 0
KCR2 201111Z 06004KT 18/10 A2983 RMK A01 T01750096  RH  060%=      5-min Rain = 0
KCR2 201112Z 06004KT 18/10 A2983 RMK A01 T01750095  RH  060%=      5-min Rain = 0
KCR2 201113Z 05004KT 17/10 A2983 RMK A01 T01740096  RH  060%=      5-min Rain = 0
KCR2 201114Z 05003KT 17/10 A2983 RMK A01 T01730095  RH  060%=      5-min Rain = 0
KCR2 201115Z 05004KT 17/10 A2984 RMK A01 T01720095  RH  060%=      5-min Rain = 0
KCR2 201116Z 05004KT 17/09 A2984 RMK A01 T01710094  RH  061%=      5-min Rain = 0
KCR2 201117Z 04005KT 17/09 A2984 RMK A01 T01700094  RH  061%=      5-min Rain = 0
KCR2 201118Z 04004KT 17/09 A2984 RMK A01 T01700094  RH  061%=      5-min Rain = 0
KCR2 201119Z 04004KT 17/09 A2984 RMK A01 T01690094  RH  061%=      5-min Rain = 0
KCR2 201120Z 04004KT 17/09 A2984 RMK A01 T01690094  RH  061%=      5-min Rain = 0
KCR2 201121Z 04004KT 17/09 A2984 RMK A01 T01690094  RH  061%=      5-min Rain = 0
KCR2 201122Z 04004KT 17/09 A2984 RMK A01 T01690093  RH  061%=      5-min Rain = 0
KCR2 201123Z 04004KT 17/09 A2984 RMK A01 T01690093  RH  061%=      5-min Rain = 0
KCR2 201124Z 04003KT 17/09 A2984 RMK A01 T01700093  RH  061%=      5-min Rain = 0
KCR2 201125Z 06002KT 17/09 A2984 RMK A01 T01690093  RH  060%=      5-min Rain = 0
KCR2 201126Z 05002KT 17/09 A2984 RMK A01 T01700092  RH  060%=      5-min Rain = 0
KCR2 201127Z 03002KT 17/09 A2984 RMK A01 T01700092  RH  060%=      5-min Rain = 0
KCR2 201128Z 28001KT 17/09 A2984 RMK A01 T01710091  RH  059%=      5-min Rain = 0
KCR2 201129Z 30001KT 17/09 A2984 RMK A01 T01740092  RH  058%=      5-min Rain = 0
KCR2 201130Z 28000KT 18/09 A2984 RMK A01 T01760093  RH  058%=      5-min Rain = 0
KCR2 201131Z 03001KT 18/09 A2984 RMK A01 T01760092  RH  058%=      5-min Rain = 0
KCR2 201132Z 05001KT 18/09 A2984 RMK A01 T01760092  RH  058%=      5-min Rain = 0
KCR2 201133Z 04001KT 18/09 A2984 RMK A01 T01760092  RH  058%=      5-min Rain = 0
KCR2 201134Z 06002KT 18/09 A2984 RMK A01 T01750092  RH  058%=      5-min Rain = 0
KCR2 201135Z 06002KT 18/09 A2984 RMK A01 T01750091  RH  058%=      5-min Rain = 0
KCR2 201136Z 06002KT 18/09 A2984 RMK A01 T01750092  RH  058%=      5-min Rain = 0
KCR2 201137Z 08002KT 18/09 A2984 RMK A01 T01750092  RH  058%=      5-min Rain = 0
KCR2 201138Z 10002KT 18/09 A2984 RMK A01 T01750091  RH  058%=      5-min Rain = 0
KCR2 201139Z 08002KT 17/09 A2984 RMK A01 T01740092  RH  058%=      5-min Rain = 0
KCR2 201140Z 09002KT 17/09 A2984 RMK A01 T01740092  RH  058%=      5-min Rain = 0
KCR2 201141Z 09003KT 17/09 A2984 RMK A01 T01740091  RH  058%=      5-min Rain = 0
KCR2 201142Z 08003KT 17/09 A2984 RMK A01 T01740090  RH  058%=      5-min Rain = 0
KCR2 201143Z 08003KT 17/09 A2984 RMK A01 T01730089  RH  058%=      5-min Rain = 0
KCR2 201144Z 08004KT 17/09 A2984 RMK A01 T01720089  RH  058%=      5-min Rain = 0
KCR2 201145Z 08004KT 17/09 A2984 RMK A01 T01710089  RH  058%=      5-min Rain = 0
KCR2 201146Z 07004KT 17/09 A2984 RMK A01 T01710089  RH  059%=      5-min Rain = 0
KCR2 201147Z 07005KT 17/09 A2984 RMK A01 T01700089  RH  059%=      5-min Rain = 0
KCR2 201148Z 06005KT 17/09 A2984 RMK A01 T01690089  RH  059%=      5-min Rain = 0
KCR2 201149Z 07005KT 17/09 A2984 RMK A01 T01670089  RH  060%=      5-min Rain = 0
KCR2 201150Z 07005KT 17/09 A2984 RMK A01 T01670089  RH  060%=      5-min Rain = 0
KCR2 201151Z 07005KT 17/09 A2984 RMK A01 T01670089  RH  060%=      5-min Rain = 0
KCR2 201152Z 07005KT 17/09 A2984 RMK A01 T01670089  RH  060%=      5-min Rain = 0
KCR2 201153Z 08003KT 17/09 A2984 RMK A01 T01680089  RH  060%=      5-min Rain = 0
KCR2 201154Z 08002KT 17/09 A2985 RMK A01 T01680088  RH  059%=      5-min Rain = 0
KCR2 201155Z 08002KT 17/09 A2985 RMK A01 T01680088  RH  059%=      5-min Rain = 0
KCR2 201156Z 06003KT 17/09 A2985 RMK A01 T01680088  RH  059%=      5-min Rain = 0
KCR2 201157Z 07003KT 17/09 A2985 RMK A01 T01680088  RH  059%=      5-min Rain = 0
KCR2 201158Z 06004KT 17/09 A2985 RMK A01 T01680088  RH  059%=      5-min Rain = 0
KCR2 201159Z 06002KT 17/09 A2985 RMK A01 T01690089  RH  059%=      5-min Rain = 0
KCR2 201200Z 08001KT 17/09 A2985 RMK A01 T01690088  RH  059%=      5-min Rain = 0
KCR2 201201Z 07003KT 17/09 A2985 RMK A01 T01690088  RH  059%=      5-min Rain = 0
KCR2 201202Z 09003KT 17/09 A2985 RMK A01 T01690088  RH  059%=      5-min Rain = 0
KCR2 201203Z 09004KT 17/09 A2985 RMK A01 T01690088  RH  059%=      5-min Rain = 0
KCR2 201204Z 09003KT 17/09 A2985 RMK A01 T01700088  RH  058%=      5-min Rain = 0
KCR2 201205Z 10003KT 17/09 A2985 RMK A01 T01710088  RH  058%=      5-min Rain = 0
KCR2 201206Z 11003KT 17/09 A2985 RMK A01 T01710088  RH  058%=      5-min Rain = 0
KCR2 201207Z 10004KT 17/09 A2985 RMK A01 T01710087  RH  058%=      5-min Rain = 0
KCR2 201208Z 10004KT 17/09 A2985 RMK A01 T01720087  RH  057%=      5-min Rain = 0
KCR2 201209Z 10003KT 17/09 A2985 RMK A01 T01720087  RH  057%=      5-min Rain = 0
KCR2 201210Z 10003KT 17/09 A2985 RMK A01 T01720087  RH  057%=      5-min Rain = 0
KCR2 201211Z 07003KT 17/09 A2985 RMK A01 T01720088  RH  057%=      5-min Rain = 0
KCR2 201212Z 08002KT 17/09 A2985 RMK A01 T01730088  RH  057%=      5-min Rain = 0
KCR2 201213Z 06002KT 17/09 A2985 RMK A01 T01730087  RH  057%=      5-min Rain = 0
KCR2 201214Z 06003KT 17/09 A2985 RMK A01 T01730087  RH  057%=      5-min Rain = 0
KCR2 201215Z 07003KT 17/09 A2985 RMK A01 T01730088  RH  057%=      5-min Rain = 0
KCR2 201216Z 06003KT 17/09 A2985 RMK A01 T01740089  RH  057%=      5-min Rain = 0
KCR2 201217Z 06003KT 17/09 A2985 RMK A01 T01740089  RH  057%=      5-min Rain = 0
KCR2 201218Z 05003KT 17/09 A2985 RMK A01 T01740089  RH  058%=      5-min Rain = 0
KCR2 201219Z 05003KT 17/09 A2985 RMK A01 T01730090  RH  058%=      5-min Rain = 0
KCR2 201220Z 05002KT 17/09 A2985 RMK A01 T01730091  RH  058%=      5-min Rain = 0
KCR2 201221Z 06002KT 17/09 A2985 RMK A01 T01740091  RH  058%=      5-min Rain = 0
KCR2 201222Z 07002KT 18/09 A2985 RMK A01 T01750091  RH  058%=      5-min Rain = 0
KCR2 201223Z 07003KT 18/09 A2985 RMK A01 T01760090  RH  057%=      5-min Rain = 0
KCR2 201224Z 08002KT 18/09 A2985 RMK A01 T01780091  RH  057%=      5-min Rain = 0
KCR2 201225Z 08003KT 18/09 A2985 RMK A01 T01790091  RH  056%=      5-min Rain = 0
KCR2 201226Z 08003KT 18/09 A2985 RMK A01 T01800091  RH  056%=      5-min Rain = 0
KCR2 201227Z 07003KT 18/09 A2986 RMK A01 T01820092  RH  056%=      5-min Rain = 0
KCR2 201228Z 07003KT 18/09 A2986 RMK A01 T01830092  RH  055%=      5-min Rain = 0
KCR2 201229Z 06003KT 18/09 A2986 RMK A01 T01840093  RH  055%=      5-min Rain = 0
KCR2 201230Z 07002KT 19/09 A2986 RMK A01 T01850094  RH  055%=      5-min Rain = 0
KCR2 201231Z 07002KT 19/09 A2986 RMK A01 T01860092  RH  055%=      5-min Rain = 0
KCR2 201232Z 07002KT 19/09 A2986 RMK A01 T01870091  RH  054%=      5-min Rain = 0
KCR2 201233Z 07002KT 19/09 A2986 RMK A01 T01880091  RH  053%=      5-min Rain = 0
KCR2 201234Z 06002KT 19/09 A2986 RMK A01 T01890091  RH  053%=      5-min Rain = 0
KCR2 201235Z 06003KT 19/09 A2986 RMK A01 T01900092  RH  053%=      5-min Rain = 0
KCR2 201236Z 08002KT 19/09 A2986 RMK A01 T01910092  RH  053%=      5-min Rain = 0
KCR2 201237Z 08002KT 19/09 A2986 RMK A01 T01920092  RH  053%=      5-min Rain = 0
KCR2 201238Z 07003KT 19/09 A2986 RMK A01 T01930092  RH  052%=      5-min Rain = 0
KCR2 201239Z 07002KT 19/09 A2986 RMK A01 T01930093  RH  052%=      5-min Rain = 0
KCR2 201240Z 10001KT 19/09 A2986 RMK A01 T01940093  RH  052%=      5-min Rain = 0
KCR2 201241Z 09001KT 20/09 A2986 RMK A01 T01960093  RH  051%=      5-min Rain = 0
KCR2 201242Z 08002KT 20/09 A2986 RMK A01 T01970094  RH  051%=      5-min Rain = 0
KCR2 201243Z 06001KT 20/09 A2986 RMK A01 T01980094  RH  051%=      5-min Rain = 0
KCR2 201244Z 07000KT 20/10 A2986 RMK A01 T01990095  RH  051%=      5-min Rain = 0
KCR2 201245Z 07001KT 20/10 A2986 RMK A01 T02010095  RH  050%=      5-min Rain = 0
KCR2 201246Z 07001KT 20/10 A2986 RMK A01 T02020095  RH  050%=      5-min Rain = 0
KCR2 201247Z 06001KT 20/10 A2986 RMK A01 T02030096  RH  050%=      5-min Rain = 0
KCR2 201248Z 05001KT 20/10 A2986 RMK A01 T02040097  RH  050%=      5-min Rain = 0
KCR2 201249Z 07001KT 21/10 A2986 RMK A01 T02050096  RH  050%=      5-min Rain = 0
KCR2 201250Z 06001KT 21/10 A2986 RMK A01 T02060095  RH  049%=      5-min Rain = 0
KCR2 201251Z 05001KT 21/10 A2986 RMK A01 T02070097  RH  049%=      5-min Rain = 0
KCR2 201252Z 03001KT 21/10 A2986 RMK A01 T02080097  RH  049%=      5-min Rain = 0
KCR2 201253Z 12000KT 21/10 A2986 RMK A01 T02080098  RH  049%=      5-min Rain = 0
KCR2 201254Z 08000KT 21/10 A2986 RMK A01 T02090097  RH  049%=      5-min Rain = 0
KCR2 201255Z 00000KT 21/10 A2986 RMK A01 T02100098  RH  049%=      5-min Rain = 0
KCR2 201256Z 00000KT 21/10 A2986 RMK A01 T02120098  RH  048%=      5-min Rain = 0
KCR2 201257Z 10000KT 21/10 A2986 RMK A01 T02130098  RH  048%=      5-min Rain = 0
KCR2 201258Z 09000KT 22/10 A2986 RMK A01 T02150098  RH  047%=      5-min Rain = 0
KCR2 201259Z 09001KT 22/10 A2986 RMK A01 T02170099  RH  047%=      5-min Rain = 0
KCR2 201300Z 11000KT 22/10 A2986 RMK A01 T02190100  RH  047%=      5-min Rain = 0
KCR2 201301Z 00000KT 22/10 A2986 RMK A01 T02210101  RH  047%=      5-min Rain = 0
KCR2 201302Z 05000KT 22/10 A2986 RMK A01 T02230102  RH  046%=      5-min Rain = 0
KCR2 201303Z 06001KT 23/10 A2986 RMK A01 T02250104  RH  046%=      5-min Rain = 0
KCR2 201304Z 06001KT 23/10 A2986 RMK A01 T02260103  RH  046%=      5-min Rain = 0
KCR2 201305Z 06000KT 23/11 A2986 RMK A01 T02280106  RH  046%=      5-min Rain = 0
KCR2 201306Z 05001KT 23/11 A2986 RMK A01 T02280106  RH  046%=      5-min Rain = 0
KCR2 201307Z 03001KT 23/11 A2986 RMK A01 T02280106  RH  046%=      5-min Rain = 0
KCR2 201308Z 03001KT 23/11 A2986 RMK A01 T02290109  RH  047%=      5-min Rain = 0
KCR2 201309Z 02001KT 23/11 A2987 RMK A01 T02290112  RH  048%=      5-min Rain = 0
KCR2 201310Z 01002KT 23/11 A2987 RMK A01 T02290114  RH  048%=      5-min Rain = 0
KCR2 201311Z 01002KT 23/12 A2987 RMK A01 T02280116  RH  049%=      5-min Rain = 0
KCR2 201312Z 02002KT 23/12 A2987 RMK A01 T02280116  RH  049%=      5-min Rain = 0
KCR2 201313Z 02002KT 23/12 A2987 RMK A01 T02270117  RH  050%=      5-min Rain = 0
KCR2 201314Z 02002KT 23/12 A2987 RMK A01 T02270115  RH  049%=      5-min Rain = 0
KCR2 201315Z 02002KT 23/11 A2987 RMK A01 T02260114  RH  049%=      5-min Rain = 0
KCR2 201316Z 01002KT 23/12 A2987 RMK A01 T02260116  RH  050%=      5-min Rain = 0
KCR2 201317Z 02002KT 23/12 A2987 RMK A01 T02260116  RH  050%=      5-min Rain = 0
KCR2 201318Z 03002KT 23/12 A2987 RMK A01 T02260115  RH  049%=      5-min Rain = 0
KCR2 201319Z 03003KT 23/12 A2987 RMK A01 T02260115  RH  049%=      5-min Rain = 0
KCR2 201320Z 03002KT 23/12 A2987 RMK A01 T02260115  RH  049%=      5-min Rain = 0
KCR2 201321Z 04001KT 23/12 A2987 RMK A01 T02260117  RH  050%=      5-min Rain = 0
KCR2 201322Z 06001KT 23/12 A2987 RMK A01 T02270116  RH  049%=      5-min Rain = 0
KCR2 201323Z 05002KT 23/12 A2987 RMK A01 T02290116  RH  049%=      5-min Rain = 0
KCR2 201324Z 03002KT 23/12 A2987 RMK A01 T02300117  RH  049%=      5-min Rain = 0
KCR2 201325Z 02002KT 23/12 A2987 RMK A01 T02310119  RH  049%=      5-min Rain = 0
KCR2 201326Z 02001KT 23/12 A2987 RMK A01 T02320120  RH  049%=      5-min Rain = 0
KCR2 201327Z 02002KT 23/12 A2987 RMK A01 T02320120  RH  049%=      5-min Rain = 0
KCR2 201328Z 02002KT 23/12 A2987 RMK A01 T02330120  RH  049%=      5-min Rain = 0
KCR2 201329Z 03002KT 23/12 A2987 RMK A01 T02340120  RH  049%=      5-min Rain = 0
KCR2 201330Z 02002KT 23/12 A2987 RMK A01 T02340121  RH  049%=      5-min Rain = 0
KCR2 201331Z 02002KT 23/12 A2987 RMK A01 T02340123  RH  050%=      5-min Rain = 0
KCR2 201332Z 01002KT 24/12 A2987 RMK A01 T02360123  RH  049%=      5-min Rain = 0
KCR2 201333Z 01003KT 24/12 A2987 RMK A01 T02370123  RH  049%=      5-min Rain = 0
KCR2 201334Z 01002KT 24/12 A2987 RMK A01 T02370123  RH  049%=      5-min Rain = 0
KCR2 201335Z 01003KT 24/12 A2987 RMK A01 T02370124  RH  049%=      5-min Rain = 0
KCR2 201336Z 02002KT 24/13 A2987 RMK A01 T02370126  RH  050%=      5-min Rain = 0
KCR2 201337Z 02002KT 24/13 A2987 RMK A01 T02380125  RH  049%=      5-min Rain = 0
KCR2 201338Z 02002KT 24/13 A2987 RMK A01 T02380125  RH  049%=      5-min Rain = 0
KCR2 201339Z 04002KT 24/13 A2987 RMK A01 T02390125  RH  049%=      5-min Rain = 0
KCR2 201340Z 03002KT 24/13 A2987 RMK A01 T02400127  RH  049%=      5-min Rain = 0
KCR2 201341Z 03002KT 24/13 A2987 RMK A01 T02410127  RH  049%=      5-min Rain = 0
KCR2 201342Z 03002KT 24/13 A2987 RMK A01 T02430128  RH  049%=      5-min Rain = 0
KCR2 201343Z 04002KT 25/13 A2987 RMK A01 T02450129  RH  048%=      5-min Rain = 0
KCR2 201344Z 04001KT 25/13 A2987 RMK A01 T02460129  RH  048%=      5-min Rain = 0
KCR2 201345Z 03001KT 25/13 A2987 RMK A01 T02470131  RH  048%=      5-min Rain = 0
KCR2 201346Z 03002KT 25/13 A2987 RMK A01 T02480132  RH  048%=      5-min Rain = 0
KCR2 201347Z 02002KT 25/13 A2987 RMK A01 T02490131  RH  048%=      5-min Rain = 0
KCR2 201348Z 02002KT 25/13 A2987 RMK A01 T02500133  RH  048%=      5-min Rain = 0
KCR2 201349Z 02001KT 25/13 A2987 RMK A01 T02510132  RH  048%=      5-min Rain = 0
KCR2 201350Z 01001KT 25/13 A2987 RMK A01 T02520133  RH  047%=      5-min Rain = 0
KCR2 201351Z 02001KT 25/13 A2987 RMK A01 T02530133  RH  047%=      5-min Rain = 0
KCR2 201352Z 02001KT 26/13 A2987 RMK A01 T02550134  RH  047%=      5-min Rain = 0
KCR2 201353Z 01001KT 26/14 A2987 RMK A01 T02560135  RH  047%=      5-min Rain = 0
KCR2 201354Z 02002KT 26/13 A2987 RMK A01 T02580134  RH  046%=      5-min Rain = 0
KCR2 201355Z 02001KT 26/14 A2987 RMK A01 T02590137  RH  047%=      5-min Rain = 0
KCR2 201356Z 00000KT 26/13 A2987 RMK A01 T02600134  RH  046%=      5-min Rain = 0
KCR2 201357Z 05001KT 26/14 A2988 RMK A01 T02620135  RH  045%=      5-min Rain = 0
KCR2 201358Z 04000KT 26/14 A2988 RMK A01 T02640135  RH  045%=      5-min Rain = 0
KCR2 201359Z 32000KT 27/14 A2988 RMK A01 T02670135  RH  044%=      5-min Rain = 0
KCR2 201400Z 32000KT 27/14 A2988 RMK A01 T02690136  RH  044%=      5-min Rain = 0
KCR2 201401Z 00000KT 27/14 A2988 RMK A01 T02720135  RH  043%=      5-min Rain = 0
KCR2 201402Z 27000KT 27/13 A2988 RMK A01 T02730134  RH  042%=      5-min Rain = 0
KCR2 201403Z 24001KT 27/13 A2988 RMK A01 T02730134  RH  042%=      5-min Rain = 0
KCR2 201404Z 25000KT 27/13 A2988 RMK A01 T02720133  RH  042%=      5-min Rain = 0
KCR2 201405Z 25000KT 27/13 A2988 RMK A01 T02720133  RH  042%=      5-min Rain = 0
KCR2 201406Z 20000KT 27/13 A2988 RMK A01 T02730134  RH  042%=      5-min Rain = 0
KCR2 201407Z 18001KT 27/14 A2988 RMK A01 T02740135  RH  042%=      5-min Rain = 0
KCR2 201408Z 19000KT 28/13 A2988 RMK A01 T02750134  RH  042%=      5-min Rain = 0
KCR2 201409Z 24001KT 28/13 A2988 RMK A01 T02750134  RH  042%=      5-min Rain = 0
KCR2 201410Z 21002KT 28/14 A2988 RMK A01 T02750135  RH  042%=      5-min Rain = 0
KCR2 201411Z 22003KT 28/14 A2988 RMK A01 T02750135  RH  042%=      5-min Rain = 0
KCR2 201412Z 20002KT 28/14 A2988 RMK A01 T02750137  RH  043%=      5-min Rain = 0
KCR2 201413Z 21005KT 28/13 A2988 RMK A01 T02760134  RH  042%=      5-min Rain = 0
KCR2 201414Z 21005KT 28/13 A2988 RMK A01 T02770128  RH  040%=      5-min Rain = 0
KCR2 201415Z 23005KT 28/13 A2988 RMK A01 T02790133  RH  041%=      5-min Rain = 0
KCR2 201416Z 22006KT 28/13 A2988 RMK A01 T02820131  RH  040%=      5-min Rain = 0
KCR2 201417Z 23007KT 29/12 A2988 RMK A01 T02860119  RH  036%=      5-min Rain = 0
KCR2 201418Z 23007KT 29/11 A2988 RMK A01 T02900106  RH  032%=      5-min Rain = 0
KCR2 201419Z 23009KT 29/10 A2988 RMK A01 T02930099  RH  030%=      5-min Rain = 0
KCR2 201420Z 23010KT 30/09 A2988 RMK A01 T02950090  RH  028%=      5-min Rain = 0
KCR2 201421Z 23010KT 30/09 A2988 RMK A01 T02950086  RH  027%=      5-min Rain = 0
KCR2 201422Z 23008KT 30/09 A2988 RMK A01 T02960088  RH  027%=      5-min Rain = 0
KCR2 201423Z 24009KT 30/09 A2988 RMK A01 T02970088  RH  027%=      5-min Rain = 0
KCR2 201424Z 24010KT 30/08 A2988 RMK A01 T02980081  RH  026%=      5-min Rain = 0
KCR2 201425Z 23010KT 30/08 A2988 RMK A01 T02980081  RH  026%=      5-min Rain = 0
KCR2 201426Z 25009KT 30/08 A2988 RMK A01 T02970084  RH  026%=      5-min Rain = 0
KCR2 201427Z 24012KT 30/08 A2988 RMK A01 T02970080  RH  026%=      5-min Rain = 0
KCR2 201428Z 23011KT 30/08 A2988 RMK A01 T02970079  RH  026%=      5-min Rain = 0
KCR2 201429Z 23010KT 30/08 A2988 RMK A01 T02980080  RH  026%=      5-min Rain = 0
KCR2 201430Z 22011KT 30/08 A2988 RMK A01 T02980080  RH  025%=      5-min Rain = 0
KCR2 201431Z 23012KT 30/08 A2988 RMK A01 T02990076  RH  025%=      5-min Rain = 0
KCR2 201432Z 24009KT 30/08 A2988 RMK A01 T02990076  RH  025%=      5-min Rain = 0
KCR2 201433Z 23010KT 30/08 A2988 RMK A01 T03000076  RH  025%=      5-min Rain = 0
KCR2 201434Z 22011KT 30/08 A2988 RMK A01 T03000077  RH  025%=      5-min Rain = 0
KCR2 201435Z 22011KT 30/07 A2988 RMK A01 T03000072  RH  024%=      5-min Rain = 0
KCR2 201436Z 22010KT 30/07 A2988 RMK A01 T02990074  RH  024%=      5-min Rain = 0
KCR2 201437Z 23011KT 30/07 A2988 RMK A01 T02990074  RH  024%=      5-min Rain = 0
KCR2 201438Z 23010KT 30/07 A2988 RMK A01 T03010072  RH  024%=      5-min Rain = 0
KCR2 201439Z 24009KT 30/07 A2988 RMK A01 T03010072  RH  024%=      5-min Rain = 0
KCR2 201440Z 25010KT 30/07 A2988 RMK A01 T03020074  RH  024%=      5-min Rain = 0
KCR2 201441Z 24009KT 30/07 A2988 RMK A01 T03020074  RH  024%=      5-min Rain = 0
KCR2 201442Z 23010KT 30/07 A2988 RMK A01 T03020074  RH  024%=      5-min Rain = 0
KCR2 201443Z 23009KT 30/07 A2988 RMK A01 T03030071  RH  023%=      5-min Rain = 0
KCR2 201444Z 24009KT 30/08 A2988 RMK A01 T03030076  RH  024%=      5-min Rain = 0
KCR2 201445Z 25008KT 30/07 A2988 RMK A01 T03040074  RH  024%=      5-min Rain = 0
KCR2 201446Z 23007KT 31/08 A2988 RMK A01 T03060080  RH  024%=      5-min Rain = 0
KCR2 201447Z 23009KT 31/08 A2988 RMK A01 T03070081  RH  024%=      5-min Rain = 0
KCR2 201448Z 23009KT 31/08 A2988 RMK A01 T03060078  RH  024%=      5-min Rain = 0
KCR2 201449Z 22010KT 31/08 A2988 RMK A01 T03070075  RH  023%=      5-min Rain = 0
KCR2 201450Z 23008KT 31/07 A2988 RMK A01 T03060072  RH  023%=      5-min Rain = 0
KCR2 201451Z 24010KT 31/07 A2988 RMK A01 T03060067  RH  022%=      5-min Rain = 0
KCR2 201452Z 24010KT 31/06 A2988 RMK A01 T03060059  RH  021%=      5-min Rain = 0
KCR2 201453Z 25010KT 31/06 A2988 RMK A01 T03050055  RH  021%=      5-min Rain = 0
KCR2 201454Z 24009KT 31/06 A2988 RMK A01 T03050060  RH  021%=      5-min Rain = 0
KCR2 201455Z 25010KT 31/06 A2988 RMK A01 T03050063  RH  022%=      5-min Rain = 0
KCR2 201456Z 25011KT 31/07 A2988 RMK A01 T03050065  RH  022%=      5-min Rain = 0
KCR2 201457Z 24010KT 31/07 A2988 RMK A01 T03050065  RH  022%=      5-min Rain = 0
KCR2 201458Z 25009KT 31/07 A2988 RMK A01 T03050067  RH  022%=      5-min Rain = 0
KCR2 201459Z 25009KT 31/07 A2988 RMK A01 T03060068  RH  023%=      5-min Rain = 0
KCR2 201500Z 24009KT 31/07 A2988 RMK A01 T03060072  RH  023%=      5-min Rain = 0
KCR2 201501Z 25009KT 31/07 A2988 RMK A01 T03060073  RH  023%=      5-min Rain = 0
KCR2 201502Z 25008KT 31/07 A2988 RMK A01 T03080070  RH  023%=      5-min Rain = 0
KCR2 201503Z 23009KT 31/07 A2988 RMK A01 T03080071  RH  023%=      5-min Rain = 0
KCR2 201504Z 24010KT 31/07 A2988 RMK A01 T03100068  RH  022%=      5-min Rain = 0
KCR2 201505Z 24009KT 31/07 A2988 RMK A01 T03100068  RH  022%=      5-min Rain = 0
KCR2 201506Z 24009KT 31/07 A2988 RMK A01 T03090070  RH  022%=      5-min Rain = 0
KCR2 201507Z 24009KT 31/07 A2988 RMK A01 T03090074  RH  023%=      5-min Rain = 0
KCR2 201508Z 23008KT 31/08 A2988 RMK A01 T03100075  RH  023%=      5-min Rain = 0
KCR2 201509Z 24010KT 31/07 A2988 RMK A01 T03110072  RH  023%=      5-min Rain = 0
KCR2 201510Z 24010KT 31/07 A2988 RMK A01 T03120068  RH  022%=      5-min Rain = 0
KCR2 201511Z 25009KT 31/07 A2988 RMK A01 T03130068  RH  022%=      5-min Rain = 0
KCR2 201512Z 24010KT 31/07 A2988 RMK A01 T03130068  RH  022%=      5-min Rain = 0
KCR2 201513Z 25008KT 31/07 A2988 RMK A01 T03130072  RH  022%=      5-min Rain = 0
KCR2 201514Z 26009KT 31/07 A2988 RMK A01 T03140069  RH  022%=      5-min Rain = 0
KCR2 201515Z 24010KT 32/07 A2988 RMK A01 T03150071  RH  022%=      5-min Rain = 0
KCR2 201516Z 24012KT 32/06 A2988 RMK A01 T03170063  RH  020%=      5-min Rain = 0
KCR2 201517Z 23011KT 32/07 A2988 RMK A01 T03170065  RH  021%=      5-min Rain = 0
KCR2 201518Z 24011KT 32/07 A2988 RMK A01 T03180068  RH  021%=      5-min Rain = 0
KCR2 201519Z 24010KT 32/07 A2988 RMK A01 T03170068  RH  021%=      5-min Rain = 0
KCR2 201520Z 24010KT 32/07 A2988 RMK A01 T03170066  RH  021%=      5-min Rain = 0
KCR2 201521Z 24009KT 32/07 A2988 RMK A01 T03170066  RH  021%=      5-min Rain = 0
KCR2 201522Z 24008KT 32/07 A2987 RMK A01 T03170068  RH  021%=      5-min Rain = 0
KCR2 201523Z 24008KT 32/07 A2987 RMK A01 T03190065  RH  021%=      5-min Rain = 0
KCR2 201524Z 26009KT 32/06 A2987 RMK A01 T03200056  RH  019%=      5-min Rain = 0
KCR2 201525Z 25011KT 32/05 A2987 RMK A01 T03210052  RH  018%=      5-min Rain = 0
KCR2 201526Z 26009KT 32/05 A2987 RMK A01 T03200053  RH  019%=      5-min Rain = 0
KCR2 201527Z 26011KT 32/05 A2987 RMK A01 T03210052  RH  019%=      5-min Rain = 0
KCR2 201528Z 25009KT 32/05 A2987 RMK A01 T03220053  RH  019%=      5-min Rain = 0
KCR2 201529Z 25007KT 32/06 A2987 RMK A01 T03220059  RH  019%=      5-min Rain = 0
KCR2 201530Z 25009KT 33/06 A2987 RMK A01 T03260059  RH  019%=      5-min Rain = 0
KCR2 201531Z 25008KT 33/06 A2987 RMK A01 T03270056  RH  018%=      5-min Rain = 0
KCR2 201532Z 24008KT 33/06 A2987 RMK A01 T03260056  RH  018%=      5-min Rain = 0
KCR2 201533Z 24009KT 33/06 A2987 RMK A01 T03260057  RH  019%=      5-min Rain = 0
KCR2 201534Z 25010KT 33/05 A2987 RMK A01 T03280054  RH  018%=      5-min Rain = 0
KCR2 201535Z 25010KT 33/05 A2987 RMK A01 T03280050  RH  018%=      5-min Rain = 0
KCR2 201536Z 26010KT 33/05 A2987 RMK A01 T03270048  RH  017%=      5-min Rain = 0
KCR2 201537Z 25011KT 33/05 A2987 RMK A01 T03260049  RH  018%=      5-min Rain = 0
KCR2 201538Z 25011KT 33/05 A2987 RMK A01 T03250049  RH  018%=      5-min Rain = 0
KCR2 201539Z 24010KT 33/05 A2987 RMK A01 T03250047  RH  017%=      5-min Rain = 0
KCR2 201540Z 24008KT 33/05 A2987 RMK A01 T03250047  RH  018%=      5-min Rain = 0
KCR2 201541Z 25009KT 33/05 A2987 RMK A01 T03260054  RH  018%=      5-min Rain = 0
KCR2 201542Z 26010KT 33/05 A2987 RMK A01 T03300054  RH  018%=      5-min Rain = 0
KCR2 201543Z 24009KT 33/05 A2987 RMK A01 T03310053  RH  018%=      5-min Rain = 0
KCR2 201544Z 26010KT 33/05 A2987 RMK A01 T03310054  RH  018%=      5-min Rain = 0
KCR2 201545Z 26011KT 33/05 A2987 RMK A01 T03330051  RH  017%=      5-min Rain = 0
KCR2 201546Z 26009KT 33/05 A2987 RMK A01 T03320049  RH  017%=      5-min Rain = 0
KCR2 201547Z 26008KT 33/05 A2987 RMK A01 T03310049  RH  017%=      5-min Rain = 0
KCR2 201548Z 24008KT 33/05 A2987 RMK A01 T03310053  RH  018%=      5-min Rain = 0
KCR2 201549Z 26009KT 33/05 A2987 RMK A01 T03320053  RH  018%=      5-min Rain = 0
KCR2 201550Z 25007KT 33/05 A2987 RMK A01 T03320053  RH  018%=      5-min Rain = 0
KCR2 201551Z 25010KT 33/05 A2987 RMK A01 T03330053  RH  017%=      5-min Rain = 0
KCR2 201552Z 24012KT 33/05 A2987 RMK A01 T03340047  RH  017%=      5-min Rain = 0
KCR2 201553Z 25011KT 33/05 A2987 RMK A01 T03340046  RH  016%=      5-min Rain = 0
KCR2 201554Z 25009KT 34/05 A2987 RMK A01 T03350046  RH  016%=      5-min Rain = 0
KCR2 201555Z 25010KT 33/05 A2987 RMK A01 T03340051  RH  017%=      5-min Rain = 0
KCR2 201556Z 24009KT 34/05 A2987 RMK A01 T03360052  RH  017%=      5-min Rain = 0
KCR2 201557Z 25009KT 34/05 A2987 RMK A01 T03390049  RH  016%=      5-min Rain = 0
KCR2 201558Z 25010KT 34/05 A2987 RMK A01 T03400048  RH  016%=      5-min Rain = 0
KCR2 201559Z 24012KT 34/05 A2987 RMK A01 T03390048  RH  016%=      5-min Rain = 0
KCR2 201600Z 25011KT 34/05 A2987 RMK A01 T03380047  RH  016%=      5-min Rain = 0
KCR2 201601Z 24012KT 34/04 A2987 RMK A01 T03380041  RH  016%=      5-min Rain = 0
KCR2 201602Z 24008KT 34/04 A2987 RMK A01 T03370043  RH  016%=      5-min Rain = 0
KCR2 201603Z 23009KT 34/05 A2987 RMK A01 T03370049  RH  017%=      5-min Rain = 0
KCR2 201604Z 25009KT 34/05 A2987 RMK A01 T03360048  RH  017%=      5-min Rain = 0
KCR2 201605Z 24011KT 34/05 A2987 RMK A01 T03360046  RH  016%=      5-min Rain = 0
KCR2 201606Z 25011KT 34/05 A2987 RMK A01 T03370049  RH  017%=      5-min Rain = 0
KCR2 201607Z 24010KT 34/05 A2987 RMK A01 T03380049  RH  016%=      5-min Rain = 0
KCR2 201608Z 25009KT 34/05 A2987 RMK A01 T03400049  RH  016%=      5-min Rain = 0
KCR2 201609Z 26009KT 34/05 A2987 RMK A01 T03420049  RH  016%=      5-min Rain = 0
KCR2 201610Z 23010KT 34/05 A2986 RMK A01 T03420054  RH  017%=      5-min Rain = 0
KCR2 201611Z 23010KT 34/06 A2986 RMK A01 T03430058  RH  017%=      5-min Rain = 0
KCR2 201612Z 22009KT 34/06 A2986 RMK A01 T03440055  RH  017%=      5-min Rain = 0
KCR2 201613Z 25009KT 34/05 A2986 RMK A01 T03430053  RH  016%=      5-min Rain = 0
KCR2 201614Z 25011KT 34/05 A2986 RMK A01 T03430049  RH  016%=      5-min Rain = 0
KCR2 201615Z 26009KT 34/05 A2986 RMK A01 T03430052  RH  016%=      5-min Rain = 0
KCR2 201616Z 26007KT 34/05 A2986 RMK A01 T03420052  RH  016%=      5-min Rain = 0
KCR2 201617Z 25010KT 34/05 A2986 RMK A01 T03440054  RH  017%=      5-min Rain = 0
KCR2 201618Z 24010KT 35/05 A2986 RMK A01 T03460054  RH  016%=      5-min Rain = 0
KCR2 201619Z 24008KT 35/05 A2986 RMK A01 T03460052  RH  016%=      5-min Rain = 0
KCR2 201620Z 23009KT 35/05 A2986 RMK A01 T03460054  RH  016%=      5-min Rain = 0
KCR2 201621Z 23011KT 35/06 A2986 RMK A01 T03480055  RH  016%=      5-min Rain = 0
KCR2 201622Z 23010KT 35/06 A2986 RMK A01 T03460056  RH  016%=      5-min Rain = 0
KCR2 201623Z 24008KT 35/05 A2986 RMK A01 T03470051  RH  016%=      5-min Rain = 0
KCR2 201624Z 25007KT 35/05 A2986 RMK A01 T03470052  RH  016%=      5-min Rain = 0
KCR2 201625Z 23008KT 35/05 A2986 RMK A01 T03460054  RH  016%=      5-min Rain = 0
KCR2 201626Z 23009KT 35/06 A2986 RMK A01 T03470055  RH  016%=      5-min Rain = 0
KCR2 201627Z 24009KT 35/06 A2986 RMK A01 T03510055  RH  016%=      5-min Rain = 0
KCR2 201628Z 25007KT 35/05 A2986 RMK A01 T03540048  RH  015%=      5-min Rain = 0
KCR2 201629Z 24010KT 36/05 A2986 RMK A01 T03560053  RH  015%=      5-min Rain = 0
KCR2 201630Z 25010KT 36/05 A2986 RMK A01 T03590048  RH  015%=      5-min Rain = 0
KCR2 201631Z 25010KT 36/04 A2986 RMK A01 T03580044  RH  014%=      5-min Rain = 0
KCR2 201632Z 27010KT 36/04 A2986 RMK A01 T03560040  RH  014%=      5-min Rain = 0
KCR2 201633Z 27010KT 35/04 A2986 RMK A01 T03540039  RH  014%=      5-min Rain = 0
KCR2 201634Z 27010KT 35/04 A2986 RMK A01 T03540043  RH  014%=      5-min Rain = 0
KCR2 201635Z 28007KT 35/05 A2986 RMK A01 T03530046  RH  015%=      5-min Rain = 0
KCR2 201641Z 25012KT 36/04 A2986 RMK A01 T03570038  RH  014%=      5-min Rain = 0
KCR2 201642Z 25011KT 36/04 A2986 RMK A01 T03550040  RH  014%=      5-min Rain = 0
KCR2 201643Z 24008KT 36/05 A2986 RMK A01 T03580045  RH  014%=      5-min Rain = 0
KCR2 201644Z 24012KT 36/05 A2986 RMK A01 T03620045  RH  014%=      5-min Rain = 0
KCR2 201645Z 25012KT 36/04 A2986 RMK A01 T03610042  RH  014%=      5-min Rain = 0
KCR2 201646Z 26010KT 36/03 A2986 RMK A01 T03580029  RH  013%=      5-min Rain = 0
KCR2 201647Z 24011KT 36/03 A2986 RMK A01 T03550033  RH  013%=      5-min Rain = 0
KCR2 201648Z 24012KT 36/04 A2986 RMK A01 T03570043  RH  014%=      5-min Rain = 0
KCR2 201649Z 24009KT 36/04 A2986 RMK A01 T03580044  RH  014%=      5-min Rain = 0
KCR2 201650Z 25009KT 36/04 A2986 RMK A01 T03590044  RH  014%=      5-min Rain = 0
KCR2 201651Z 24010KT 36/05 A2986 RMK A01 T03590046  RH  014%=      5-min Rain = 0
KCR2 201652Z 24008KT 36/04 A2986 RMK A01 T03600044  RH  014%=      5-min Rain = 0
KCR2 201653Z 25011KT 36/05 A2986 RMK A01 T03600046  RH  014%=      5-min Rain = 0
KCR2 201654Z 26006KT 36/05 A2986 RMK A01 T03620047  RH  014%=      5-min Rain = 0
KCR2 201655Z 26008KT 36/04 A2986 RMK A01 T03640040  RH  013%=      5-min Rain = 0
KCR2 201656Z 24009KT 37/05 A2986 RMK A01 T03660046  RH  014%=      5-min Rain = 0
KCR2 201657Z 24010KT 37/05 A2986 RMK A01 T03660046  RH  014%=      5-min Rain = 0
KCR2 201658Z 23011KT 37/05 A2986 RMK A01 T03660050  RH  014%=      5-min Rain = 0
KCR2 201659Z 23011KT 37/05 A2986 RMK A01 T03650045  RH  014%=      5-min Rain = 0
KCR2 201700Z 23009KT 36/05 A2986 RMK A01 T03640046  RH  014%=      5-min Rain = 0
KCR2 201701Z 23012KT 37/05 A2986 RMK A01 T03660050  RH  014%=      5-min Rain = 0
KCR2 201702Z 26010KT 37/05 A2986 RMK A01 T03670045  RH  014%=      5-min Rain = 0
KCR2 201703Z 23008KT 37/05 A2986 RMK A01 T03660047  RH  014%=      5-min Rain = 0
KCR2 201704Z 23010KT 37/05 A2986 RMK A01 T03670049  RH  014%=      5-min Rain = 0
KCR2 201705Z 25013KT 37/05 A2986 RMK A01 T03680046  RH  014%=      5-min Rain = 0
KCR2 201706Z 26011KT 37/04 A2986 RMK A01 T03680035  RH  013%=      5-min Rain = 0
KCR2 201707Z 26011KT 37/03 A2986 RMK A01 T03650032  RH  013%=      5-min Rain = 0
KCR2 201708Z 24011KT 37/03 A2986 RMK A01 T03660030  RH  012%=      5-min Rain = 0
KCR2 201709Z 24009G14KT 36/03 A2986 RMK A01 T03640026  RH  012%=      5-min Rain = 0
KCR2 201710Z 24011KT 36/03 A2986 RMK A01 T03620029  RH  013%=      5-min Rain = 0
KCR2 201711Z 24008KT 36/03 A2986 RMK A01 T03640033  RH  013%=      5-min Rain = 0
KCR2 201712Z 24010KT 37/04 A2986 RMK A01 T03650040  RH  013%=      5-min Rain = 0
KCR2 201713Z 23009KT 37/04 A2986 RMK A01 T03690040  RH  013%=      5-min Rain = 0
KCR2 201714Z 22012KT 37/05 A2986 RMK A01 T03700047  RH  014%=      5-min Rain = 0
KCR2 201715Z 26010KT 37/04 A2986 RMK A01 T03730044  RH  013%=      5-min Rain = 0
KCR2 201716Z 25013KT 38/04 A2986 RMK A01 T03760040  RH  013%=      5-min Rain = 0
KCR2 201717Z 24012KT 38/04 A2986 RMK A01 T03760036  RH  012%=      5-min Rain = 0
KCR2 201718Z 24009KT 37/04 A2986 RMK A01 T03720035  RH  012%=      5-min Rain = 0
KCR2 201719Z 25009KT 37/04 A2986 RMK A01 T03720038  RH  013%=      5-min Rain = 0
KCR2 201720Z 24011KT 37/04 A2986 RMK A01 T03740037  RH  012%=      5-min Rain = 0
KCR2 201721Z 24012G17KT 38/03 A2985 RMK A01 T03760033  RH  012%=      5-min Rain = 0
KCR2 201722Z 24013KT 38/03 A2986 RMK A01 T03760032  RH  012%=      5-min Rain = 0
KCR2 201723Z 22012KT 37/03 A2985 RMK A01 T03740029  RH  012%=      5-min Rain = 0
KCR2 201724Z 23012G17KT 37/03 A2985 RMK A01 T03730033  RH  012%=      5-min Rain = 0
KCR2 201725Z 25015KT 38/01 A2985 RMK A01 T03760013  RH  010%=      5-min Rain = 0
KCR2 201726Z 23016KT 38/01 A2985 RMK A01 T03760014  RH  010%=      5-min Rain = 0
KCR2 201727Z 23014KT 38/01 A2985 RMK A01 T03750013  RH  010%=      5-min Rain = 0
KCR2 201728Z 24012KT 38/02 A2985 RMK A01 T03750022  RH  011%=      5-min Rain = 0
KCR2 201729Z 25013KT 38/03 A2985 RMK A01 T03760028  RH  012%=      5-min Rain = 0
KCR2 201730Z 25013KT 38/03 A2985 RMK A01 T03780029  RH  011%=      5-min Rain = 0
KCR2 201731Z 26012KT 38/03 A2985 RMK A01 T03790031  RH  012%=      5-min Rain = 0
KCR2 201732Z 25015KT 38/03 A2985 RMK A01 T03780032  RH  012%=      5-min Rain = 0
KCR2 201733Z 25013KT 38/03 A2985 RMK A01 T03780029  RH  011%=      5-min Rain = 0
KCR2 201734Z 26014KT 38/03 A2985 RMK A01 T03780030  RH  012%=      5-min Rain = 0
KCR2 201735Z 26010KT 38/03 A2985 RMK A01 T03760032  RH  012%=      5-min Rain = 0
KCR2 201736Z 23013KT 38/04 A2985 RMK A01 T03800039  RH  012%=      5-min Rain = 0
KCR2 201737Z 24011KT 38/04 A2985 RMK A01 T03800038  RH  012%=      5-min Rain = 0
KCR2 201738Z 24010KT 38/04 A2985 RMK A01 T03790035  RH  012%=      5-min Rain = 0
KCR2 201739Z 24009KT 38/04 A2985 RMK A01 T03770037  RH  012%=      5-min Rain = 0
KCR2 201740Z 24012KT 38/04 A2985 RMK A01 T03810037  RH  012%=      5-min Rain = 0
KCR2 201741Z 21014KT 38/04 A2985 RMK A01 T03820039  RH  012%=      5-min Rain = 0
KCR2 201742Z 22013KT 38/03 A2985 RMK A01 T03820034  RH  012%=      5-min Rain = 0
KCR2 201743Z 21014KT 38/03 A2985 RMK A01 T03820030  RH  011%=      5-min Rain = 0
KCR2 201744Z 21013KT 38/03 A2985 RMK A01 T03820027  RH  011%=      5-min Rain = 0
KCR2 201745Z 23012KT 38/03 A2985 RMK A01 T03830028  RH  011%=      5-min Rain = 0
KCR2 201746Z 24007KT 38/03 A2985 RMK A01 T03800025  RH  011%=      5-min Rain = 0
KCR2 201747Z 22008KT 38/03 A2985 RMK A01 T03780034  RH  012%=      5-min Rain = 0
KCR2 201748Z 23009KT 38/04 A2985 RMK A01 T03830038  RH  012%=      5-min Rain = 0
KCR2 201749Z 24014KT 39/03 A2985 RMK A01 T03870034  RH  011%=      5-min Rain = 0
KCR2 201750Z 24011KT 39/03 A2985 RMK A01 T03860027  RH  011%=      5-min Rain = 0
KCR2 201751Z 23009KT 38/03 A2985 RMK A01 T03830029  RH  011%=      5-min Rain = 0
KCR2 201752Z 23007KT 38/02 A2985 RMK A01 T03800020  RH  011%=      5-min Rain = 0
KCR2 201753Z 24010G18KT 38/03 A2985 RMK A01 T03790027  RH  011%=      5-min Rain = 0
KCR2 201754Z 24013KT 38/02 A2985 RMK A01 T03840021  RH  010%=      5-min Rain = 0
KCR2 201755Z 24014KT 39/02 A2985 RMK A01 T03860020  RH  010%=      5-min Rain = 0
KCR2 201756Z 23012KT 39/02 A2985 RMK A01 T03850021  RH  010%=      5-min Rain = 0
KCR2 201757Z 24009KT 38/02 A2985 RMK A01 T03840020  RH  010%=      5-min Rain = 0
KCR2 201758Z 24011G16KT 39/02 A2985 RMK A01 T03880023  RH  010%=      5-min Rain = 0
KCR2 201759Z 23013KT 39/02 A2985 RMK A01 T03930024  RH  010%=      5-min Rain = 0
KCR2 201800Z 24016KT 39/02 A2984 RMK A01 T03900015  RH  010%=      5-min Rain = 0
KCR2 201801Z 24015G20KT 39/01 A2984 RMK A01 T03870013  RH  010%=      5-min Rain = 0
KCR2 201802Z 24013KT 39/01 A2985 RMK A01 T03870014  RH  010%=      5-min Rain = 0
KCR2 201803Z 24011KT 39/01 A2985 RMK A01 T03870006  RH  009%=      5-min Rain = 0
KCR2 201804Z 25009KT 39/01 A2985 RMK A01 T03860006  RH  009%=      5-min Rain = 0
KCR2 201805Z 26011KT 39/01 A2985 RMK A01 T03860008  RH  009%=      5-min Rain = 0
KCR2 201806Z 26012G17KT 39/01 A2985 RMK A01 T03900011  RH  009%=      5-min Rain = 0
KCR2 201807Z 24014KT 39/01 A2985 RMK A01 T03920010  RH  009%=      5-min Rain = 0
KCR2 201808Z 25011KT 39/01 A2985 RMK A01 T03910010  RH  009%=      5-min Rain = 0
KCR2 201809Z 23011KT 39/01 A2984 RMK A01 T03920008  RH  009%=      5-min Rain = 0
KCR2 201810Z 24013KT 39/01 A2984 RMK A01 T03900006  RH  009%=      5-min Rain = 0
KCR2 201811Z 24013KT 39/01 A2984 RMK A01 T03870008  RH  009%=      5-min Rain = 0
KCR2 201812Z 24009KT 39/01 A2984 RMK A01 T03880007  RH  009%=      5-min Rain = 0
KCR2 201813Z 27010KT 39/01 A2984 RMK A01 T03910011  RH  009%=      5-min Rain = 0
KCR2 201814Z 27012KT 40/01 A2984 RMK A01 T03950006  RH  009%=      5-min Rain = 0
KCR2 201815Z 24011KT 39/01 A2984 RMK A01 T03940009  RH  009%=      5-min Rain = 0
KCR2 201816Z 25011KT 40/01 A2984 RMK A01 T03980007  RH  009%=      5-min Rain = 0
KCR2 201817Z 25011KT 40/00 A2984 RMK A01 T03970003  RH  009%=      5-min Rain = 0
KCR2 201818Z 27009KT 40/01 A2984 RMK A01 T03950009  RH  009%=      5-min Rain = 0
KCR2 201819Z 26009KT 39/01 A2984 RMK A01 T03940012  RH  009%=      5-min Rain = 0
KCR2 201820Z 26007KT 39/01 A2984 RMK A01 T03920011  RH  009%=      5-min Rain = 0
KCR2 201821Z 28008KT 39/02 A2984 RMK A01 T03930016  RH  010%=      5-min Rain = 0
KCR2 201822Z 28012G23KT 40/01 A2984 RMK A01 T03960012  RH  009%=      5-min Rain = 0
KCR2 201823Z 23012G20KT 40/02 A2984 RMK A01 T03980017  RH  010%=      5-min Rain = 0
KCR2 201824Z 23011KT 40/02 A2984 RMK A01 T03980022  RH  010%=      5-min Rain = 0
KCR2 201825Z 23010KT 40/02 A2984 RMK A01 T03970015  RH  009%=      5-min Rain = 0
KCR2 201826Z 24009KT 40/01 A2984 RMK A01 T03950014  RH  009%=      5-min Rain = 0
KCR2 201827Z 25010KT 39/02 A2984 RMK A01 T03930015  RH  010%=      5-min Rain = 0
KCR2 201828Z 27010KT 39/01 A2984 RMK A01 T03940012  RH  009%=      5-min Rain = 0
KCR2 201829Z 28014G20KT 40/01 A2984 RMK A01 T03950009  RH  009%=      5-min Rain = 0
KCR2 201830Z 27018KT 40/01 A2984 RMK A01 T03980007  RH  009%=      5-min Rain = 0
KCR2 201831Z 26016G23KT 40/01 A2984 RMK A01 T04000005  RH  009%=      5-min Rain = 0
KCR2 201832Z 28010KT 40/01 A2984 RMK A01 T03960006  RH  009%=      5-min Rain = 0
KCR2 201833Z 26014KT 40/00 A2984 RMK A01 T03960004  RH  009%=      5-min Rain = 0
KCR2 201834Z 25011KT 39/00 A2984 RMK A01 T03930001  RH  009%=      5-min Rain = 0
KCR2 201835Z 25008KT 39/01 A2984 RMK A01 T03910006  RH  009%=      5-min Rain = 0
KCR2 201836Z 25012KT 39/01 A2984 RMK A01 T03940008  RH  009%=      5-min Rain = 0
KCR2 201837Z 27013KT 40/01 A2984 RMK A01 T03950006  RH  009%=      5-min Rain = 0
KCR2 201838Z 25015G22KT 40/01 A2984 RMK A01 T03990009  RH  009%=      5-min Rain = 0
KCR2 201839Z 26019KT 40/M00 A2984 RMK A01 T04011001  RH  008%=      5-min Rain = 0
KCR2 201840Z 26018KT 40/M00 A2984 RMK A01 T03981003  RH  008%=      5-min Rain = 0
KCR2 201841Z 25013KT 40/M00 A2984 RMK A01 T03971001  RH  008%=      5-min Rain = 0
KCR2 201842Z 25011KT 40/M00 A2984 RMK A01 T03971002  RH  008%=      5-min Rain = 0
KCR2 201843Z 24010KT 40/00 A2983 RMK A01 T039800-0  RH  008%=      5-min Rain = 0
KCR2 201844Z 25011G17KT 40/M00 A2983 RMK A01 T03991004  RH  008%=      5-min Rain = 0
KCR2 201845Z 30015KT 40/M00 A2983 RMK A01 T03971004  RH  008%=      5-min Rain = 0
KCR2 201846Z 28014KT 40/M01 A2983 RMK A01 T03981005  RH  008%=      5-min Rain = 0
KCR2 201847Z 27015KT 40/M00 A2983 RMK A01 T03991002  RH  008%=      5-min Rain = 0
KCR2 201848Z 27011KT 40/M00 A2983 RMK A01 T04001001  RH  008%=      5-min Rain = 0
KCR2 201849Z 28015G21KT 40/00 A2983 RMK A01 T04010000  RH  008%=      5-min Rain = 0
KCR2 201850Z 27018G23KT 40/00 A2983 RMK A01 T040100-0  RH  008%=      5-min Rain = 0
KCR2 201851Z 26017G22KT 40/00 A2983 RMK A01 T04020003  RH  008%=      5-min Rain = 0
KCR2 201852Z 27014G19KT 40/00 A2983 RMK A01 T04010002  RH  008%=      5-min Rain = 0
KCR2 201853Z 26012KT 40/00 A2983 RMK A01 T04000001  RH  008%=      5-min Rain = 0
KCR2 201854Z 28011KT 40/M00 A2983 RMK A01 T03991001  RH  008%=      5-min Rain = 0
KCR2 201855Z 27011KT 40/00 A2983 RMK A01 T04000000  RH  008%=      5-min Rain = 0
KCR2 201856Z 25011KT 40/01 A2983 RMK A01 T04010005  RH  009%=      5-min Rain = 0
KCR2 201857Z 27014KT 40/00 A2983 RMK A01 T04030003  RH  008%=      5-min Rain = 0
KCR2 201858Z 25011KT 40/00 A2983 RMK A01 T04030000  RH  008%=      5-min Rain = 0
KCR2 201859Z 24011KT 40/01 A2983 RMK A01 T04030011  RH  009%=      5-min Rain = 0
KCR2 201900Z 26014KT 40/01 A2983 RMK A01 T04040009  RH  009%=      5-min Rain = 0
KCR2 201901Z 27014KT 41/00 A2983 RMK A01 T040500-0  RH  008%=      5-min Rain = 0
KCR2 201902Z 27015G20KT 40/M00 A2983 RMK A01 T04021002  RH  008%=      5-min Rain = 0
KCR2 201903Z 26017KT 40/00 A2983 RMK A01 T04010000  RH  008%=      5-min Rain = 0
KCR2 201904Z 25011G16KT 40/00 A2983 RMK A01 T03990001  RH  008%=      5-min Rain = 0
KCR2 201905Z 26011G17KT 40/00 A2983 RMK A01 T03990001  RH  008%=      5-min Rain = 0
KCR2 201906Z 26005KT 40/00 A2983 RMK A01 T039600-0  RH  008%=      5-min Rain = 0
KCR2 201907Z 26008KT 40/00 A2983 RMK A01 T03950004  RH  009%=      5-min Rain = 0
KCR2 201908Z 26006KT 40/01 A2983 RMK A01 T03990006  RH  009%=      5-min Rain = 0
KCR2 201909Z 27008KT 40/00 A2983 RMK A01 T04000004  RH  009%=      5-min Rain = 0
KCR2 201910Z 27010KT 40/01 A2982 RMK A01 T04000006  RH  009%=      5-min Rain = 0
KCR2 201911Z 27011KT 40/01 A2982 RMK A01 T04030007  RH  009%=      5-min Rain = 0
KCR2 201912Z 24012KT 41/01 A2982 RMK A01 T04060008  RH  009%=      5-min Rain = 0
KCR2 201913Z 24009KT 40/01 A2982 RMK A01 T04030005  RH  008%=      5-min Rain = 0
KCR2 201914Z 24012G18KT 41/01 A2982 RMK A01 T04050011  RH  009%=      5-min Rain = 0
KCR2 201915Z 24014KT 41/02 A2982 RMK A01 T04070020  RH  009%=      5-min Rain = 0
KCR2 201916Z 24018KT 41/01 A2982 RMK A01 T04090012  RH  009%=      5-min Rain = 0
KCR2 201917Z 25017KT 41/01 A2982 RMK A01 T04070005  RH  008%=      5-min Rain = 0
KCR2 201918Z 24017G22KT 41/00 A2982 RMK A01 T04050004  RH  008%=      5-min Rain = 0
KCR2 201919Z 23017KT 40/00 A2982 RMK A01 T04030004  RH  008%=      5-min Rain = 0
KCR2 201920Z 23019KT 40/01 A2982 RMK A01 T04020011  RH  009%=      5-min Rain = 0
KCR2 201921Z 24019KT 40/01 A2982 RMK A01 T04040008  RH  009%=      5-min Rain = 0
KCR2 201922Z 24014G19KT 40/01 A2982 RMK A01 T04040006  RH  008%=      5-min Rain = 0
KCR2 201923Z 25018KT 41/01 A2982 RMK A01 T04070013  RH  009%=      5-min Rain = 0
KCR2 201924Z 24019KT 41/01 A2982 RMK A01 T04090009  RH  008%=      5-min Rain = 0
KCR2 201925Z 24019KT 41/00 A2982 RMK A01 T04060002  RH  008%=      5-min Rain = 0
KCR2 201926Z 26017G22KT 40/00 A2983 RMK A01 T04020001  RH  008%=      5-min Rain = 0
KCR2 201927Z 25012KT 40/00 A2982 RMK A01 T04010001  RH  008%=      5-min Rain = 0
KCR2 201928Z 28011G16KT 40/00 A2982 RMK A01 T04020002  RH  008%=      5-min Rain = 0
KCR2 201929Z 25009KT 40/00 A2982 RMK A01 T04040004  RH  008%=      5-min Rain = 0
KCR2 201930Z 25014KT 41/01 A2982 RMK A01 T04080008  RH  008%=      5-min Rain = 0
KCR2 201931Z 25016KT 41/00 A2982 RMK A01 T04110002  RH  008%=      5-min Rain = 0
KCR2 201932Z 25017KT 41/00 A2982 RMK A01 T04070001  RH  008%=      5-min Rain = 0
KCR2 201933Z 25017KT 40/00 A2982 RMK A01 T04040002  RH  008%=      5-min Rain = 0
KCR2 201934Z 25014KT 40/00 A2982 RMK A01 T04040003  RH  008%=      5-min Rain = 0
KCR2 201935Z 26015G20KT 40/00 A2982 RMK A01 T04040000  RH  008%=      5-min Rain = 0
KCR2 201936Z 26011KT 40/M00 A2981 RMK A01 T04031001  RH  008%=      5-min Rain = 0
KCR2 201937Z 25018KT 40/01 A2981 RMK A01 T04040005  RH  008%=      5-min Rain = 0
KCR2 201938Z 24017KT 41/01 A2982 RMK A01 T04100013  RH  009%=      5-min Rain = 0
KCR2 201939Z 24014KT 41/01 A2982 RMK A01 T04120008  RH  008%=      5-min Rain = 0
KCR2 201940Z 23017KT 41/01 A2982 RMK A01 T04110014  RH  009%=      5-min Rain = 0
KCR2 201941Z 23016KT 41/01 A2981 RMK A01 T04080005  RH  008%=      5-min Rain = 0
KCR2 201942Z 24010KT 41/01 A2981 RMK A01 T04060006  RH  008%=      5-min Rain = 0
KCR2 201943Z 25010G18KT 41/00 A2981 RMK A01 T04060002  RH  008%=      5-min Rain = 0
KCR2 201944Z 22013KT 41/01 A2981 RMK A01 T04070009  RH  009%=      5-min Rain = 0
KCR2 201945Z 24013KT 41/01 A2981 RMK A01 T04060006  RH  008%=      5-min Rain = 0
KCR2 201946Z 25015KT 41/01 A2981 RMK A01 T04070006  RH  008%=      5-min Rain = 0
KCR2 201947Z 27017KT 41/00 A2982 RMK A01 T04090002  RH  008%=      5-min Rain = 0
KCR2 201948Z 26013KT 41/M00 A2981 RMK A01 T04081001  RH  008%=      5-min Rain = 0
KCR2 201949Z 26012KT 41/M00 A2981 RMK A01 T04061002  RH  008%=      5-min Rain = 0
KCR2 201950Z 25011KT 41/00 A2981 RMK A01 T040500-0  RH  008%=      5-min Rain = 0
KCR2 201951Z 24015KT 41/M00 A2981 RMK A01 T04051001  RH  008%=      5-min Rain = 0
KCR2 201952Z 23013KT 40/M00 A2981 RMK A01 T04031001  RH  008%=      5-min Rain = 0
KCR2 201953Z 24014G20KT 41/01 A2981 RMK A01 T04060006  RH  008%=      5-min Rain = 0
KCR2 201954Z 25014KT 41/01 A2981 RMK A01 T04080007  RH  008%=      5-min Rain = 0
KCR2 201955Z 25018KT 41/00 A2981 RMK A01 T04080004  RH  008%=      5-min Rain = 0
KCR2 201956Z 25016G21KT 41/00 A2981 RMK A01 T04070004  RH  008%=      5-min Rain = 0
KCR2 201957Z 23014KT 41/02 A2981 RMK A01 T04110016  RH  009%=      5-min Rain = 0
KCR2 201958Z 24014KT 41/01 A2981 RMK A01 T04130010  RH  008%=      5-min Rain = 0
KCR2 201959Z 23012G18KT 41/01 A2981 RMK A01 T04090005  RH  008%=      5-min Rain = 0
KCR2 202000Z 24021G27KT 41/00 A2981 RMK A01 T04060003  RH  008%=      5-min Rain = 0
KCR2 202001Z 25017KT 41/00 A2981 RMK A01 T04050000  RH  008%=      5-min Rain = 0
KCR2 202002Z 24012KT 41/01 A2981 RMK A01 T04050005  RH  008%=      5-min Rain = 0
KCR2 202003Z 24011KT 41/01 A2981 RMK A01 T04080009  RH  008%=      5-min Rain = 0
KCR2 202004Z 24009KT 41/02 A2981 RMK A01 T04100015  RH  009%=      5-min Rain = 0
KCR2 202005Z 23012G18KT 41/02 A2981 RMK A01 T04130015  RH  009%=      5-min Rain = 0
KCR2 202006Z 24013KT 41/01 A298 RMK A01 T04110005  RH  008%=      5-min Rain = 0
KCR2 202007Z 24013G18KT 41/00 A298 RMK A01 T04070002  RH  008%=      5-min Rain = 0
KCR2 202008Z 24019G28KT 41/01 A2981 RMK A01 T04080007  RH  008%=      5-min Rain = 0
KCR2 202009Z 25018KT 41/00 A2981 RMK A01 T04100004  RH  008%=      5-min Rain = 0
KCR2 202010Z 23016KT 41/00 A2981 RMK A01 T04090003  RH  008%=      5-min Rain = 0
KCR2 202011Z 24013KT 41/00 A2981 RMK A01 T04060001  RH  008%=      5-min Rain = 0
KCR2 202012Z 23014KT 41/01 A298 RMK A01 T04070007  RH  008%=      5-min Rain = 0
KCR2 202013Z 22011G17KT 41/00 A298 RMK A01 T04090002  RH  008%=      5-min Rain = 0
KCR2 202014Z 23013KT 41/01 A298 RMK A01 T04070006  RH  008%=      5-min Rain = 0
KCR2 202015Z 25013G19KT 41/01 A298 RMK A01 T04080010  RH  009%=      5-min Rain = 0
KCR2 202016Z 25018KT 41/00 A2981 RMK A01 T04130004  RH  008%=      5-min Rain = 0
KCR2 202017Z 25018KT 41/00 A2981 RMK A01 T04130001  RH  008%=      5-min Rain = 0
KCR2 202018Z 25013KT 41/M00 A2981 RMK A01 T04081003  RH  008%=      5-min Rain = 0
KCR2 202019Z 25013KT 41/00 A298 RMK A01 T040500-0  RH  008%=      5-min Rain = 0
KCR2 202020Z 25015G20KT 41/00 A298 RMK A01 T040700-0  RH  008%=      5-min Rain = 0
KCR2 202021Z 25015KT 41/00 A298 RMK A01 T04090002  RH  008%=      5-min Rain = 0
KCR2 202022Z 24016G21KT 41/01 A298 RMK A01 T04100012  RH  009%=      5-min Rain = 0
KCR2 202023Z 24014G19KT 41/00 A2981 RMK A01 T04100001  RH  008%=      5-min Rain = 0
KCR2 202024Z 23010KT 41/00 A298 RMK A01 T04070001  RH  008%=      5-min Rain = 0
KCR2 202025Z 24007KT 40/00 A298 RMK A01 T040400-0  RH  008%=      5-min Rain = 0
KCR2 202026Z 23006KT 40/M00 A298 RMK A01 T04031003  RH  008%=      5-min Rain = 0
KCR2 202027Z 23008KT 40/00 A298 RMK A01 T04040002  RH  008%=      5-min Rain = 0
KCR2 202028Z 22013KT 41/01 A298 RMK A01 T04080007  RH  008%=      5-min Rain = 0
KCR2 202029Z 22018G25KT 41/01 A298 RMK A01 T04090007  RH  008%=      5-min Rain = 0
KCR2 202030Z 21012G17KT 41/00 A2979 RMK A01 T04090001  RH  008%=      5-min Rain = 0
KCR2 202031Z 21014KT 41/M00 A2979 RMK A01 T04091001  RH  008%=      5-min Rain = 0
KCR2 202032Z 25015KT 41/01 A298 RMK A01 T04090010  RH  009%=      5-min Rain = 0
KCR2 202033Z 24015G21KT 41/M00 A298 RMK A01 T04101003  RH  008%=      5-min Rain = 0
KCR2 202034Z 27018KT 41/M00 A298 RMK A01 T04081002  RH  008%=      5-min Rain = 0
KCR2 202035Z 27014KT 41/M00 A298 RMK A01 T04101004  RH  008%=      5-min Rain = 0
KCR2 202036Z 26012KT 41/M00 A298 RMK A01 T04121003  RH  008%=      5-min Rain = 0
KCR2 202037Z 26018KT 41/M00 A298 RMK A01 T04121004  RH  008%=      5-min Rain = 0
KCR2 202038Z 25016KT 41/M01 A298 RMK A01 T04091006  RH  008%=      5-min Rain = 0
KCR2 202039Z 26015KT 41/M01 A298 RMK A01 T04081005  RH  008%=      5-min Rain = 0
KCR2 202040Z 26016KT 41/M00 A298 RMK A01 T04081004  RH  008%=      5-min Rain = 0
KCR2 202041Z 24014G20KT 41/M00 A2979 RMK A01 T04071003  RH  008%=      5-min Rain = 0
KCR2 202042Z 24012KT 41/M00 A2979 RMK A01 T04061002  RH  008%=      5-min Rain = 0
KCR2 202043Z 24013KT 41/00 A2979 RMK A01 T04090001  RH  008%=      5-min Rain = 0
KCR2 202044Z 23012KT 41/01 A2979 RMK A01 T04090007  RH  008%=      5-min Rain = 0
KCR2 202045Z 23015KT 41/01 A2979 RMK A01 T04130008  RH  008%=      5-min Rain = 0
KCR2 202046Z 24012G19KT 41/M00 A2979 RMK A01 T04131001  RH  008%=      5-min Rain = 0
KCR2 202047Z 26010KT 41/M00 A2979 RMK A01 T04091002  RH  008%=      5-min Rain = 0
KCR2 202048Z 25007KT 41/00 A2979 RMK A01 T04110004  RH  008%=      5-min Rain = 0
KCR2 202049Z 27009KT 42/00 A2979 RMK A01 T04160004  RH  008%=      5-min Rain = 0
KCR2 202050Z 25013KT 42/00 A2979 RMK A01 T041600-0  RH  008%=      5-min Rain = 0
KCR2 202051Z 25012KT 41/M00 A2979 RMK A01 T04111002  RH  008%=      5-min Rain = 0
KCR2 202052Z 26011G17KT 41/M00 A2979 RMK A01 T04091003  RH  008%=      5-min Rain = 0
KCR2 202053Z 28017KT 41/M00 A2979 RMK A01 T04111001  RH  008%=      5-min Rain = 0
KCR2 202054Z 27018KT 41/M00 A2979 RMK A01 T04141003  RH  008%=      5-min Rain = 0
KCR2 202055Z 28017KT 42/M01 A2979 RMK A01 T04151005  RH  007%=      5-min Rain = 0
KCR2 202056Z 28017KT 41/M01 A2979 RMK A01 T04131007  RH  007%=      5-min Rain = 0
KCR2 202057Z 27014KT 41/M01 A2979 RMK A01 T04101007  RH  007%=      5-min Rain = 0
KCR2 202058Z 28017G23KT 41/M00 A2979 RMK A01 T04111003  RH  008%=      5-min Rain = 0
KCR2 202059Z 28016KT 41/M01 A2979 RMK A01 T04131005  RH  007%=      5-min Rain = 0
KCR2 202100Z 28013KT 41/M01 A2979 RMK A01 T04121005  RH  007%=      5-min Rain = 0
KCR2 202101Z 28010KT 41/M01 A2979 RMK A01 T04121005  RH  008%=      5-min Rain = 0
KCR2 202102Z 27010G16KT 41/M01 A2978 RMK A01 T04111006  RH  007%=      5-min Rain = 0
KCR2 202103Z 27010KT 41/M01 A2978 RMK A01 T04101005  RH  008%=      5-min Rain = 0
KCR2 202104Z 27008KT 41/M01 A2978 RMK A01 T04111005  RH  008%=      5-min Rain = 0
KCR2 202105Z 25010KT 41/M00 A2978 RMK A01 T04121003  RH  008%=      5-min Rain = 0
KCR2 202106Z 26011KT 41/M00 A2978 RMK A01 T04131002  RH  008%=      5-min Rain = 0
KCR2 202107Z 24011KT 41/M00 A2978 RMK A01 T04131003  RH  008%=      5-min Rain = 0
KCR2 202108Z 24012KT 41/M00 A2978 RMK A01 T04131001  RH  008%=      5-min Rain = 0
KCR2 202109Z 23012KT 41/00 A2978 RMK A01 T04130003  RH  008%=      5-min Rain = 0
KCR2 202110Z 23011KT 41/00 A2978 RMK A01 T04110004  RH  008%=      5-min Rain = 0
KCR2 202111Z 20011KT 41/M00 A2978 RMK A01 T04101004  RH  008%=      5-min Rain = 0
KCR2 202112Z 21010KT 41/M00 A2978 RMK A01 T04091001  RH  008%=      5-min Rain = 0
KCR2 202113Z 24010KT 41/00 A2978 RMK A01 T04120001  RH  008%=      5-min Rain = 0
KCR2 202114Z 25011KT 41/00 A2978 RMK A01 T04140004  RH  008%=      5-min Rain = 0
KCR2 202115Z 27013KT 42/M00 A2978 RMK A01 T04161003  RH  007%=      5-min Rain = 0
KCR2 202116Z 28016KT 41/M01 A2978 RMK A01 T04141006  RH  007%=      5-min Rain = 0
KCR2 202117Z 28014KT 41/M01 A2978 RMK A01 T04121005  RH  008%=      5-min Rain = 0
KCR2 202118Z 28014KT 41/M01 A2978 RMK A01 T04111005  RH  008%=      5-min Rain = 0
KCR2 202119Z 27014KT 41/M00 A2978 RMK A01 T04131004  RH  008%=      5-min Rain = 0
KCR2 202120Z 25016KT 41/M01 A2978 RMK A01 T04141008  RH  007%=      5-min Rain = 0
KCR2 202121Z 25018KT 41/M01 A2978 RMK A01 T04141011  RH  007%=      5-min Rain = 0
KCR2 202122Z 26014KT 41/M01 A2978 RMK A01 T04111013  RH  007%=      5-min Rain = 0
KCR2 202123Z 26010KT 41/M02 A2978 RMK A01 T04101015  RH  007%=      5-min Rain = 0
KCR2 202124Z 25015KT 41/M01 A2978 RMK A01 T04091008  RH  007%=      5-min Rain = 0
KCR2 202125Z 25012KT 41/M01 A2978 RMK A01 T04111007  RH  007%=      5-min Rain = 0
KCR2 202126Z 24012KT 41/M01 A2978 RMK A01 T04111007  RH  007%=      5-min Rain = 0
KCR2 202127Z 25012KT 41/M01 A2978 RMK A01 T04111005  RH  008%=      5-min Rain = 0
KCR2 202128Z 25012G17KT 41/M01 A2978 RMK A01 T04101006  RH  008%=      5-min Rain = 0
KCR2 202129Z 26016G21KT 41/M01 A2978 RMK A01 T04111006  RH  007%=      5-min Rain = 0
KCR2 202130Z 26014G19KT 41/M01 A2978 RMK A01 T04111008  RH  007%=      5-min Rain = 0
KCR2 202131Z 27012G17KT 41/M01 A2978 RMK A01 T04101007  RH  007%=      5-min Rain = 0
KCR2 202132Z 26011G18KT 41/M01 A2977 RMK A01 T04111008  RH  007%=      5-min Rain = 0
KCR2 202133Z 25016G21KT 41/M00 A2977 RMK A01 T04111004  RH  008%=      5-min Rain = 0
KCR2 202134Z 25018KT 41/M00 A2978 RMK A01 T04121004  RH  008%=      5-min Rain = 0
KCR2 202135Z 25012KT 41/M01 A2978 RMK A01 T04091008  RH  007%=      5-min Rain = 0
KCR2 202136Z 25010KT 41/M01 A2977 RMK A01 T04071008  RH  008%=      5-min Rain = 0
KCR2 202137Z 25012KT 41/M00 A2977 RMK A01 T04081001  RH  008%=      5-min Rain = 0
KCR2 202138Z 25013G18KT 42/01 A2977 RMK A01 T04150008  RH  008%=      5-min Rain = 0
KCR2 202139Z 25016KT 42/M00 A2977 RMK A01 T04161001  RH  008%=      5-min Rain = 0
KCR2 202140Z 25012KT 41/M01 A2977 RMK A01 T04111005  RH  008%=      5-min Rain = 0
KCR2 202141Z 24008KT 41/M01 A2977 RMK A01 T04071005  RH  008%=      5-min Rain = 0
KCR2 202142Z 24009KT 41/M00 A2977 RMK A01 T04091002  RH  008%=      5-min Rain = 0
KCR2 202143Z 24008KT 41/M00 A2977 RMK A01 T04081003  RH  008%=      5-min Rain = 0
KCR2 202144Z 24010KT 41/00 A2977 RMK A01 T04080001  RH  008%=      5-min Rain = 0
KCR2 202145Z 27016KT 41/00 A2977 RMK A01 T04110003  RH  008%=      5-min Rain = 0
KCR2 202146Z 28014KT 41/00 A2977 RMK A01 T04120001  RH  008%=      5-min Rain = 0
KCR2 202147Z 29012KT 41/00 A2977 RMK A01 T04140002  RH  008%=      5-min Rain = 0
KCR2 202148Z 28011KT 41/00 A2977 RMK A01 T04140003  RH  008%=      5-min Rain = 0
KCR2 202149Z 29010KT 41/00 A2977 RMK A01 T04130002  RH  008%=      5-min Rain = 0
KCR2 202150Z 31009KT 41/00 A2977 RMK A01 T04130004  RH  008%=      5-min Rain = 0
KCR2 202151Z 28009G14KT 42/00 A2977 RMK A01 T04150004  RH  008%=      5-min Rain = 0
KCR2 202152Z 27015KT 42/00 A2977 RMK A01 T04150004  RH  008%=      5-min Rain = 0
KCR2 202153Z 26019KT 42/01 A2977 RMK A01 T04150005  RH  008%=      5-min Rain = 0
KCR2 202154Z 26015KT 41/00 A2977 RMK A01 T04120002  RH  008%=      5-min Rain = 0
KCR2 202155Z 27018KT 41/00 A2977 RMK A01 T04110004  RH  008%=      5-min Rain = 0
KCR2 202156Z 27012G17KT 41/00 A2977 RMK A01 T04110004  RH  008%=      5-min Rain = 0
KCR2 202157Z 26008KT 41/00 A2977 RMK A01 T04090004  RH  008%=      5-min Rain = 0
KCR2 202158Z 26010KT 41/01 A2977 RMK A01 T04090005  RH  008%=      5-min Rain = 0
KCR2 202159Z 25010KT 41/00 A2977 RMK A01 T04090004  RH  008%=      5-min Rain = 0
KCR2 202200Z 27012KT 41/01 A2977 RMK A01 T04090005  RH  008%=      5-min Rain = 0
KCR2 202201Z 26013KT 41/01 A2976 RMK A01 T04100005  RH  008%=      5-min Rain = 0
KCR2 202202Z 25015G20KT 41/01 A2976 RMK A01 T04100007  RH  008%=      5-min Rain = 0
KCR2 202203Z 26014KT 42/01 A2976 RMK A01 T04150012  RH  008%=      5-min Rain = 0
KCR2 202204Z 26018KT 42/01 A2976 RMK A01 T04170008  RH  008%=      5-min Rain = 0
KCR2 202205Z 28016KT 42/01 A2976 RMK A01 T04160006  RH  008%=      5-min Rain = 0
KCR2 202206Z 26015KT 42/01 A2977 RMK A01 T04190008  RH  008%=      5-min Rain = 0
KCR2 202207Z 25015KT 42/00 A2977 RMK A01 T04170003  RH  008%=      5-min Rain = 0
KCR2 202208Z 27012KT 41/00 A2977 RMK A01 T04120003  RH  008%=      5-min Rain = 0
KCR2 202209Z 29016KT 41/01 A2976 RMK A01 T04130005  RH  008%=      5-min Rain = 0
KCR2 202210Z 29015G20KT 41/00 A2976 RMK A01 T04140003  RH  008%=      5-min Rain = 0
KCR2 202211Z 27013KT 41/00 A2977 RMK A01 T04120004  RH  008%=      5-min Rain = 0
KCR2 202212Z 25011KT 41/01 A2977 RMK A01 T04140007  RH  008%=      5-min Rain = 0
KCR2 202213Z 25010KT 41/00 A2977 RMK A01 T04110001  RH  008%=      5-min Rain = 0
KCR2 202214Z 24007KT 41/M00 A2976 RMK A01 T04061001  RH  008%=      5-min Rain = 0
KCR2 202215Z 24004KT 40/00 A2976 RMK A01 T04040000  RH  008%=      5-min Rain = 0
KCR2 202216Z 26005KT 40/00 A2976 RMK A01 T04040003  RH  008%=      5-min Rain = 0
KCR2 202217Z 25006KT 41/00 A2976 RMK A01 T04050004  RH  008%=      5-min Rain = 0
KCR2 202218Z 25009KT 41/01 A2976 RMK A01 T04070006  RH  008%=      5-min Rain = 0
KCR2 202219Z 22008KT 41/01 A2976 RMK A01 T04080008  RH  008%=      5-min Rain = 0
KCR2 202220Z 24007KT 41/01 A2976 RMK A01 T04090013  RH  009%=      5-min Rain = 0
KCR2 202221Z 24008KT 41/01 A2976 RMK A01 T04110008  RH  008%=      5-min Rain = 0
KCR2 202222Z 25009G14KT 41/01 A2976 RMK A01 T04110010  RH  008%=      5-min Rain = 0
KCR2 202223Z 30010KT 41/00 A2976 RMK A01 T04120004  RH  008%=      5-min Rain = 0
KCR2 202224Z 30007KT 41/M00 A2976 RMK A01 T04111001  RH  008%=      5-min Rain = 0
KCR2 202225Z 27012G17KT 41/00 A2976 RMK A01 T04090002  RH  008%=      5-min Rain = 0
KCR2 202226Z 26018KT 41/01 A2976 RMK A01 T04120006  RH  008%=      5-min Rain = 0
KCR2 202227Z 26016KT 41/01 A2976 RMK A01 T04120005  RH  008%=      5-min Rain = 0
KCR2 202228Z 26016KT 41/01 A2976 RMK A01 T04130008  RH  008%=      5-min Rain = 0
KCR2 202229Z 27017KT 41/01 A2976 RMK A01 T04140006  RH  008%=      5-min Rain = 0
KCR2 202230Z 27015KT 41/01 A2976 RMK A01 T04130005  RH  008%=      5-min Rain = 0
KCR2 202231Z 28016KT 41/01 A2976 RMK A01 T04120005  RH  008%=      5-min Rain = 0
KCR2 202232Z 28014KT 41/00 A2976 RMK A01 T04120001  RH  008%=      5-min Rain = 0
KCR2 202233Z 28017KT 41/00 A2976 RMK A01 T04100001  RH  008%=      5-min Rain = 0
KCR2 202234Z 25014KT 41/00 A2976 RMK A01 T04110003  RH  008%=      5-min Rain = 0
KCR2 202235Z 26014KT 41/00 A2976 RMK A01 T04110000  RH  008%=      5-min Rain = 0
KCR2 202236Z 26012KT 41/M00 A2976 RMK A01 T04081002  RH  008%=      5-min Rain = 0
KCR2 202237Z 28013G18KT 41/00 A2976 RMK A01 T040700-0  RH  008%=      5-min Rain = 0
KCR2 202238Z 27016KT 41/00 A2976 RMK A01 T041000-0  RH  008%=      5-min Rain = 0
KCR2 202239Z 28016KT 41/M00 A2976 RMK A01 T04121002  RH  008%=      5-min Rain = 0
KCR2 202240Z 28015KT 41/M00 A2976 RMK A01 T04111003  RH  008%=      5-min Rain = 0
KCR2 202241Z 27016KT 41/M00 A2976 RMK A01 T04111001  RH  008%=      5-min Rain = 0
KCR2 202242Z 26015KT 41/00 A2976 RMK A01 T04110002  RH  008%=      5-min Rain = 0
KCR2 202243Z 26012KT 41/00 A2976 RMK A01 T04100002  RH  008%=      5-min Rain = 0
KCR2 202244Z 26017G23KT 41/00 A2976 RMK A01 T04090002  RH  008%=      5-min Rain = 0
KCR2 202245Z 27015KT 41/00 A2976 RMK A01 T04080001  RH  008%=      5-min Rain = 0
KCR2 202246Z 27015KT 41/00 A2976 RMK A01 T04080001  RH  008%=      5-min Rain = 0
KCR2 202247Z 26012KT 41/00 A2976 RMK A01 T04090002  RH  008%=      5-min Rain = 0
KCR2 202248Z 27012KT 41/00 A2976 RMK A01 T04110003  RH  008%=      5-min Rain = 0
KCR2 202249Z 27008KT 41/M00 A2976 RMK A01 T04091001  RH  008%=      5-min Rain = 0
KCR2 202250Z 26008KT 41/00 A2976 RMK A01 T04080001  RH  008%=      5-min Rain = 0
KCR2 202251Z 27009KT 41/00 A2976 RMK A01 T040800-0  RH  008%=      5-min Rain = 0
KCR2 202252Z 26009KT 41/M00 A2975 RMK A01 T04081001  RH  008%=      5-min Rain = 0
KCR2 202253Z 27009KT 41/00 A2975 RMK A01 T04070000  RH  008%=      5-min Rain = 0
KCR2 202254Z 27009KT 41/M00 A2975 RMK A01 T04071001  RH  008%=      5-min Rain = 0
KCR2 202255Z 27008KT 41/00 A2975 RMK A01 T04080003  RH  008%=      5-min Rain = 0
KCR2 202256Z 27008KT 41/00 A2975 RMK A01 T04100004  RH  008%=      5-min Rain = 0
KCR2 202257Z 27015G23KT 41/00 A2975 RMK A01 T04110001  RH  008%=      5-min Rain = 0
KCR2 202258Z 24017KT 41/01 A2975 RMK A01 T04110013  RH  009%=      5-min Rain = 0
KCR2 202259Z 24015KT 41/01 A2975 RMK A01 T04100009  RH  008%=      5-min Rain = 0
KCR2 202300Z 24013KT 41/01 A2975 RMK A01 T04090006  RH  008%=      5-min Rain = 0
KCR2 202301Z 25011KT 41/01 A2975 RMK A01 T04080007  RH  008%=      5-min Rain = 0
KCR2 202302Z 27011KT 41/01 A2975 RMK A01 T04120008  RH  008%=      5-min Rain = 0
KCR2 202303Z 27012KT 41/00 A2975 RMK A01 T04140001  RH  008%=      5-min Rain = 0
KCR2 202304Z 26017KT 41/00 A2975 RMK A01 T04130001  RH  008%=      5-min Rain = 0
KCR2 202305Z 26016KT 41/M00 A2975 RMK A01 T04111001  RH  008%=      5-min Rain = 0
KCR2 202306Z 26014KT 41/M00 A2975 RMK A01 T04071002  RH  008%=      5-min Rain = 0
KCR2 202307Z 27015KT 41/M00 A2975 RMK A01 T04071001  RH  008%=      5-min Rain = 0
KCR2 202308Z 27012KT 41/M00 A2975 RMK A01 T04071002  RH  008%=      5-min Rain = 0
KCR2 202309Z 27012KT 41/M00 A2975 RMK A01 T04081002  RH  008%=      5-min Rain = 0
KCR2 202310Z 25012KT 41/M01 A2975 RMK A01 T04091005  RH  008%=      5-min Rain = 0
KCR2 202311Z 25010KT 41/M01 A2975 RMK A01 T04081006  RH  008%=      5-min Rain = 0
KCR2 202312Z 26008KT 41/M01 A2975 RMK A01 T04071008  RH  008%=      5-min Rain = 0
KCR2 202313Z 24007KT 41/M01 A2975 RMK A01 T04051011  RH  007%=      5-min Rain = 0
KCR2 202314Z 25009KT 40/M01 A2975 RMK A01 T04041008  RH  008%=      5-min Rain = 0
KCR2 202315Z 24008KT 41/M00 A2975 RMK A01 T04051002  RH  008%=      5-min Rain = 0
KCR2 202316Z 25009KT 41/M01 A2975 RMK A01 T04061005  RH  008%=      5-min Rain = 0
KCR2 202317Z 29012KT 41/M00 A2975 RMK A01 T04071003  RH  008%=      5-min Rain = 0
KCR2 202318Z 28014KT 41/M01 A2975 RMK A01 T04091011  RH  007%=      5-min Rain = 0
KCR2 202319Z 28015KT 41/M01 A2975 RMK A01 T04081011  RH  007%=      5-min Rain = 0
KCR2 202320Z 26011KT 41/M01 A2975 RMK A01 T04081012  RH  007%=      5-min Rain = 0
KCR2 202321Z 26009KT 41/M01 A2974 RMK A01 T04071008  RH  008%=      5-min Rain = 0
KCR2 202322Z 26013KT 41/M01 A2974 RMK A01 T04071008  RH  008%=      5-min Rain = 0
KCR2 202323Z 27012KT 41/M01 A2974 RMK A01 T04071009  RH  007%=      5-min Rain = 0
KCR2 202324Z 27010KT 41/M01 A2974 RMK A01 T04071008  RH  007%=      5-min Rain = 0
KCR2 202325Z 26009KT 41/M00 A2974 RMK A01 T04091004  RH  008%=      5-min Rain = 0
KCR2 202326Z 24013KT 41/M00 A2974 RMK A01 T04121001  RH  008%=      5-min Rain = 0
KCR2 202327Z 25012KT 41/M00 A2974 RMK A01 T04101001  RH  008%=      5-min Rain = 0
KCR2 202328Z 27012KT 41/M00 A2974 RMK A01 T04091002  RH  008%=      5-min Rain = 0
KCR2 202329Z 25013KT 41/00 A2974 RMK A01 T040800-0  RH  008%=      5-min Rain = 0
KCR2 202330Z 25012KT 41/M00 A2974 RMK A01 T04071003  RH  008%=      5-min Rain = 0
KCR2 202331Z 25011KT 41/M00 A2974 RMK A01 T04061002  RH  008%=      5-min Rain = 0
KCR2 202332Z 24012KT 41/M00 A2974 RMK A01 T04071003  RH  008%=      5-min Rain = 0
KCR2 202333Z 25012KT 41/M00 A2974 RMK A01 T04081004  RH  008%=      5-min Rain = 0
KCR2 202334Z 26010KT 41/M01 A2974 RMK A01 T04061008  RH  008%=      5-min Rain = 0
KCR2 202335Z 27013KT 41/M01 A2974 RMK A01 T04061008  RH  008%=      5-min Rain = 0
KCR2 202336Z 27011KT 41/M01 A2974 RMK A01 T04071007  RH  008%=      5-min Rain = 0
KCR2 202337Z 27013KT 41/M01 A2974 RMK A01 T04081006  RH  008%=      5-min Rain = 0
KCR2 202338Z 27011KT 41/M01 A2974 RMK A01 T04091006  RH  008%=      5-min Rain = 0
KCR2 202339Z 27012KT 41/M00 A2974 RMK A01 T04111003  RH  008%=      5-min Rain = 0
KCR2 202340Z 28015KT 41/M01 A2974 RMK A01 T04111011  RH  007%=      5-min Rain = 0
KCR2 202341Z 28013KT 41/M01 A2974 RMK A01 T04091012  RH  007%=      5-min Rain = 0
KCR2 202342Z 29013KT 41/M01 A2974 RMK A01 T04091011  RH  007%=      5-min Rain = 0
KCR2 202343Z 26013KT 41/M01 A2974 RMK A01 T04091008  RH  007%=      5-min Rain = 0
KCR2 202344Z 26010KT 41/M01 A2974 RMK A01 T04081005  RH  008%=      5-min Rain = 0
KCR2 202345Z 27009KT 41/M01 A2974 RMK A01 T04081006  RH  008%=      5-min Rain = 0
KCR2 202346Z 25009KT 41/M01 A2974 RMK A01 T04071006  RH  008%=      5-min Rain = 0
KCR2 202347Z 26011KT 41/M01 A2974 RMK A01 T04061005  RH  008%=      5-min Rain = 0
KCR2 202348Z 25013KT 41/M01 A2974 RMK A01 T04061005  RH  008%=      5-min Rain = 0
KCR2 202349Z 24013KT 41/00 A2974 RMK A01 T04070001  RH  008%=      5-min Rain = 0
KCR2 202350Z 23010G15KT 41/00 A2974 RMK A01 T04050003  RH  008%=      5-min Rain = 0
KCR2 202351Z 24012KT 40/00 A2974 RMK A01 T04040001  RH  008%=      5-min Rain = 0
KCR2 202352Z 24010KT 40/00 A2974 RMK A01 T04030003  RH  008%=      5-min Rain = 0
KCR2 202353Z 24013KT 40/01 A2974 RMK A01 T04030005  RH  008%=      5-min Rain = 0
KCR2 202354Z 23012KT 41/01 A2974 RMK A01 T04050009  RH  009%=      5-min Rain = 0
KCR2 202355Z 22010KT 41/01 A2974 RMK A01 T04050012  RH  009%=      5-min Rain = 0
KCR2 202356Z 23009KT 40/01 A2974 RMK A01 T04040008  RH  009%=      5-min Rain = 0
KCR2 202357Z 24009KT 40/01 A2974 RMK A01 T04040013  RH  009%=      5-min Rain = 0
KCR2 202358Z 24010KT 40/01 A2974 RMK A01 T04040006  RH  008%=      5-min Rain = 0
KCR2 202359Z 23010KT 40/01 A2974 RMK A01 T04030005  RH  008%=      5-min Rain = 0
KCR2 210000Z 23010KT 40/01 A2974 RMK A01 T04020010  RH  009%=      5-min Rain = 0
KCR2 210001Z 24010KT 40/01 A2974 RMK A01 T04010009  RH  009%=      5-min Rain = 0
KCR2 210002Z 25009G14KT 40/01 A2974 RMK A01 T04030009  RH  009%=      5-min Rain = 0
KCR2 210003Z 25009KT 40/M01 A2974 RMK A01 T04041005  RH  008%=      5-min Rain = 0
KCR2 210004Z 26010KT 40/M00 A2974 RMK A01 T04041004  RH  008%=      5-min Rain = 0
KCR2 210005Z 26010KT 40/M01 A2974 RMK A01 T04041007  RH  008%=      5-min Rain = 0
KCR2 210006Z 26011KT 40/M01 A2974 RMK A01 T04031005  RH  008%=      5-min Rain = 0
KCR2 210007Z 27014KT 40/M01 A2974 RMK A01 T04041009  RH  008%=      5-min Rain = 0
KCR2 210008Z 27012KT 40/M01 A2974 RMK A01 T04031014  RH  007%=      5-min Rain = 0
KCR2 210009Z 28010KT 40/M01 A2974 RMK A01 T04031013  RH  007%=      5-min Rain = 0
KCR2 210010Z 28013KT 40/M01 A2974 RMK A01 T04041009  RH  008%=      5-min Rain = 0
KCR2 210011Z 28011KT 40/M01 A2974 RMK A01 T04041011  RH  007%=      5-min Rain = 0
KCR2 210012Z 27012KT 40/M01 A2974 RMK A01 T04041009  RH  008%=      5-min Rain = 0
KCR2 210013Z 27011KT 40/M01 A2974 RMK A01 T04041012  RH  007%=      5-min Rain = 0
KCR2 210014Z 27009KT 40/M01 A2974 RMK A01 T04031010  RH  008%=      5-min Rain = 0
KCR2 210015Z 27012KT 40/M01 A2974 RMK A01 T04031009  RH  008%=      5-min Rain = 0
KCR2 210016Z 26011KT 40/M01 A2974 RMK A01 T04031011  RH  008%=      5-min Rain = 0
KCR2 210017Z 26011KT 40/M01 A2974 RMK A01 T04031008  RH  008%=      5-min Rain = 0
KCR2 210018Z 26011KT 40/M01 A2974 RMK A01 T04021009  RH  008%=      5-min Rain = 0
KCR2 210019Z 27010KT 40/M01 A2974 RMK A01 T04031006  RH  008%=      5-min Rain = 0
KCR2 210020Z 27011KT 40/M01 A2974 RMK A01 T04021008  RH  008%=      5-min Rain = 0
KCR2 210021Z 27011KT 40/M01 A2974 RMK A01 T04031011  RH  008%=      5-min Rain = 0
KCR2 210022Z 27012KT 40/M01 A2974 RMK A01 T04021010  RH  008%=      5-min Rain = 0
KCR2 210023Z 27011KT 40/M01 A2974 RMK A01 T04011014  RH  007%=      5-min Rain = 0
KCR2 210024Z 26012KT 40/M01 A2974 RMK A01 T04001013  RH  008%=      5-min Rain = 0
KCR2 210025Z 25010KT 40/M01 A2974 RMK A01 T03981012  RH  008%=      5-min Rain = 0
KCR2 210026Z 24008KT 40/M01 A2974 RMK A01 T03951008  RH  008%=      5-min Rain = 0
KCR2 210027Z 24009KT 39/00 A2974 RMK A01 T039300-0  RH  009%=      5-min Rain = 0
KCR2 210028Z 25009KT 39/M00 A2974 RMK A01 T03911002  RH  009%=      5-min Rain = 0
KCR2 210029Z 25009KT 39/M00 A2974 RMK A01 T03901004  RH  009%=      5-min Rain = 0
KCR2 210030Z 25013KT 39/M01 A2974 RMK A01 T03891005  RH  008%=      5-min Rain = 0
KCR2 210031Z 25013KT 39/M01 A2975 RMK A01 T03891005  RH  008%=      5-min Rain = 0
KCR2 210032Z 25012KT 39/M01 A2975 RMK A01 T03881007  RH  008%=      5-min Rain = 0
KCR2 210033Z 25012KT 39/M01 A2975 RMK A01 T03881009  RH  008%=      5-min Rain = 0
KCR2 210034Z 25011KT 39/M01 A2975 RMK A01 T03871008  RH  008%=      5-min Rain = 0
KCR2 210035Z 25010KT 39/M01 A2975 RMK A01 T03861007  RH  008%=      5-min Rain = 0
KCR2 210036Z 25010KT 39/M01 A2975 RMK A01 T03861007  RH  008%=      5-min Rain = 0
KCR2 210037Z 25010KT 39/M01 A2975 RMK A01 T03851006  RH  009%=      5-min Rain = 0
KCR2 210038Z 25009KT 39/M01 A2975 RMK A01 T03851005  RH  009%=      5-min Rain = 0
KCR2 210039Z 25007KT 39/M00 A2975 RMK A01 T03851004  RH  009%=      5-min Rain = 0
KCR2 210040Z 25008KT 38/M00 A2975 RMK A01 T03841003  RH  009%=      5-min Rain = 0
KCR2 210041Z 26008KT 38/M00 A2975 RMK A01 T03831003  RH  009%=      5-min Rain = 0
KCR2 210042Z 26008KT 38/M00 A2975 RMK A01 T03831004  RH  009%=      5-min Rain = 0
KCR2 210043Z 25009KT 38/M00 A2975 RMK A01 T03831003  RH  009%=      5-min Rain = 0
KCR2 210044Z 25009KT 38/M00 A2975 RMK A01 T03841003  RH  009%=      5-min Rain = 0
KCR2 210045Z 25008KT 39/M00 A2975 RMK A01 T03851002  RH  009%=      5-min Rain = 0
KCR2 210046Z 25006KT 39/00 A2975 RMK A01 T03860001  RH  009%=      5-min Rain = 0
KCR2 210047Z 25007KT 39/00 A2975 RMK A01 T03860003  RH  009%=      5-min Rain = 0
KCR2 210048Z 25008KT 39/00 A2975 RMK A01 T03860003  RH  009%=      5-min Rain = 0
KCR2 210049Z 24009KT 39/00 A2975 RMK A01 T03860003  RH  009%=      5-min Rain = 0
KCR2 210050Z 25007KT 39/01 A2975 RMK A01 T03880008  RH  009%=      5-min Rain = 0
KCR2 210051Z 24007KT 39/01 A2975 RMK A01 T03880007  RH  009%=      5-min Rain = 0
KCR2 210052Z 24007KT 39/01 A2975 RMK A01 T03880011  RH  010%=      5-min Rain = 0
KCR2 210053Z 24008KT 39/01 A2975 RMK A01 T03880014  RH  010%=      5-min Rain = 0
KCR2 210054Z 24009KT 39/02 A2975 RMK A01 T03880019  RH  010%=      5-min Rain = 0
KCR2 210055Z 24008KT 39/01 A2975 RMK A01 T03880010  RH  009%=      5-min Rain = 0
KCR2 210056Z 24008KT 39/01 A2975 RMK A01 T03880013  RH  010%=      5-min Rain = 0
KCR2 210057Z 24008KT 39/01 A2975 RMK A01 T03880011  RH  010%=      5-min Rain = 0
KCR2 210058Z 24007KT 39/01 A2975 RMK A01 T03880012  RH  010%=      5-min Rain = 0
KCR2 210059Z 23007KT 39/01 A2975 RMK A01 T03880014  RH  010%=      5-min Rain = 0
KCR2 210100Z 23006KT 39/03 A2975 RMK A01 T03880026  RH  011%=      5-min Rain = 0
KCR2 210101Z 23006KT 39/03 A2975 RMK A01 T03860027  RH  011%=      5-min Rain = 0
KCR2 210102Z 24006KT 39/03 A2975 RMK A01 T03850027  RH  011%=      5-min Rain = 0
KCR2 210103Z 23008KT 39/02 A2975 RMK A01 T03850023  RH  011%=      5-min Rain = 0
KCR2 210104Z 24006KT 39/02 A2975 RMK A01 T03850019  RH  010%=      5-min Rain = 0
KCR2 210105Z 23007KT 39/02 A2975 RMK A01 T03850022  RH  011%=      5-min Rain = 0
KCR2 210106Z 23006KT 38/03 A2975 RMK A01 T03840025  RH  011%=      5-min Rain = 0
KCR2 210107Z 24006KT 38/03 A2975 RMK A01 T03830029  RH  011%=      5-min Rain = 0
KCR2 210108Z 23006KT 38/03 A2975 RMK A01 T03830031  RH  011%=      5-min Rain = 0
KCR2 210109Z 23006KT 38/03 A2975 RMK A01 T03820031  RH  011%=      5-min Rain = 0
KCR2 210110Z 23006KT 38/03 A2975 RMK A01 T03820029  RH  011%=      5-min Rain = 0
KCR2 210111Z 23006KT 38/03 A2975 RMK A01 T03810030  RH  011%=      5-min Rain = 0
KCR2 210112Z 23007KT 38/03 A2975 RMK A01 T03800028  RH  011%=      5-min Rain = 0
KCR2 210113Z 23007KT 38/03 A2975 RMK A01 T03800026  RH  011%=      5-min Rain = 0
KCR2 210114Z 23007KT 38/03 A2975 RMK A01 T03800028  RH  011%=      5-min Rain = 0
KCR2 210115Z 22008KT 38/03 A2975 RMK A01 T03800025  RH  011%=      5-min Rain = 0
KCR2 210116Z 22007KT 38/03 A2975 RMK A01 T03790026  RH  011%=      5-min Rain = 0
KCR2 210117Z 22007KT 38/02 A2975 RMK A01 T03790024  RH  011%=      5-min Rain = 0
KCR2 210118Z 22008KT 38/03 A2975 RMK A01 T03790027  RH  011%=      5-min Rain = 0
KCR2 210119Z 22008KT 38/03 A2975 RMK A01 T03780025  RH  011%=      5-min Rain = 0
KCR2 210120Z 22008KT 38/03 A2975 RMK A01 T03780028  RH  011%=      5-min Rain = 0
KCR2 210121Z 22008KT 38/03 A2975 RMK A01 T03770026  RH  011%=      5-min Rain = 0
KCR2 210122Z 22008KT 38/03 A2975 RMK A01 T03770028  RH  011%=      5-min Rain = 0
KCR2 210123Z 22008KT 38/02 A2975 RMK A01 T03760024  RH  011%=      5-min Rain = 0
KCR2 210124Z 22007KT 38/02 A2975 RMK A01 T03760024  RH  011%=      5-min Rain = 0
KCR2 210125Z 22007KT 38/03 A2975 RMK A01 T03750027  RH  012%=      5-min Rain = 0
KCR2 210126Z 22007KT 37/03 A2975 RMK A01 T03740028  RH  012%=      5-min Rain = 0
KCR2 210127Z 22008KT 37/03 A2975 RMK A01 T03740029  RH  012%=      5-min Rain = 0
KCR2 210128Z 22007KT 37/03 A2975 RMK A01 T03730030  RH  012%=      5-min Rain = 0
KCR2 210129Z 22007KT 37/03 A2975 RMK A01 T03720028  RH  012%=      5-min Rain = 0
KCR2 210130Z 22007KT 37/03 A2975 RMK A01 T03720028  RH  012%=      5-min Rain = 0
KCR2 210131Z 22008KT 37/03 A2975 RMK A01 T03720025  RH  012%=      5-min Rain = 0
KCR2 210132Z 22009KT 37/02 A2975 RMK A01 T03710018  RH  011%=      5-min Rain = 0
KCR2 210133Z 21008KT 37/02 A2975 RMK A01 T03720017  RH  011%=      5-min Rain = 0
KCR2 210134Z 22008KT 37/02 A2975 RMK A01 T03720019  RH  011%=      5-min Rain = 0
KCR2 210135Z 21008KT 37/02 A2975 RMK A01 T03710018  RH  011%=      5-min Rain = 0
KCR2 210136Z 22007KT 37/02 A2975 RMK A01 T03700018  RH  011%=      5-min Rain = 0
KCR2 210137Z 22007KT 37/02 A2975 RMK A01 T03690019  RH  011%=      5-min Rain = 0
KCR2 210138Z 22007KT 37/02 A2975 RMK A01 T03680019  RH  011%=      5-min Rain = 0
KCR2 210139Z 21007KT 37/02 A2975 RMK A01 T03670018  RH  011%=      5-min Rain = 0
KCR2 210140Z 21007KT 37/02 A2975 RMK A01 T03660019  RH  011%=      5-min Rain = 0
KCR2 210141Z 21007KT 37/02 A2975 RMK A01 T03650019  RH  011%=      5-min Rain = 0
KCR2 210142Z 21006KT 36/02 A2975 RMK A01 T03640019  RH  012%=      5-min Rain = 0
KCR2 210143Z 21006KT 36/02 A2975 RMK A01 T03620020  RH  012%=      5-min Rain = 0
KCR2 210144Z 21006KT 36/02 A2975 RMK A01 T03600020  RH  012%=      5-min Rain = 0
KCR2 210145Z 21007KT 36/02 A2975 RMK A01 T03580020  RH  012%=      5-min Rain = 0
KCR2 210146Z 21006KT 36/02 A2975 RMK A01 T03570020  RH  012%=      5-min Rain = 0
KCR2 210147Z 21006KT 36/02 A2975 RMK A01 T03560020  RH  012%=      5-min Rain = 0
KCR2 210148Z 21006KT 36/02 A2975 RMK A01 T03550020  RH  012%=      5-min Rain = 0
KCR2 210149Z 21006KT 35/02 A2975 RMK A01 T03530021  RH  012%=      5-min Rain = 0
KCR2 210150Z 20007KT 35/02 A2975 RMK A01 T03520021  RH  012%=      5-min Rain = 0
KCR2 210151Z 20007KT 35/02 A2975 RMK A01 T03510021  RH  013%=      5-min Rain = 0
KCR2 210152Z 20007KT 35/02 A2975 RMK A01 T03500022  RH  013%=      5-min Rain = 0
KCR2 210153Z 20007KT 35/02 A2975 RMK A01 T03490022  RH  013%=      5-min Rain = 0
KCR2 210154Z 20008KT 35/02 A2975 RMK A01 T03470021  RH  013%=      5-min Rain = 0
KCR2 210155Z 20008KT 35/02 A2975 RMK A01 T03460022  RH  013%=      5-min Rain = 0
KCR2 210156Z 20008KT 35/02 A2975 RMK A01 T03460021  RH  013%=      5-min Rain = 0
KCR2 210157Z 20008KT 35/02 A2975 RMK A01 T03460021  RH  013%=      5-min Rain = 0
KCR2 210158Z 20008KT 35/02 A2975 RMK A01 T03470022  RH  013%=      5-min Rain = 0
KCR2 210159Z 20008KT 35/02 A2975 RMK A01 T03470021  RH  013%=      5-min Rain = 0
KCR2 210200Z 20008KT 35/02 A2975 RMK A01 T03470021  RH  013%=      5-min Rain = 0
KCR2 210201Z 20008KT 35/02 A2975 RMK A01 T03460021  RH  013%=      5-min Rain = 0
KCR2 210202Z 20008KT 35/02 A2975 RMK A01 T03460021  RH  013%=      5-min Rain = 0
KCR2 210203Z 20008KT 35/02 A2976 RMK A01 T03450021  RH  013%=      5-min Rain = 0
KCR2 210204Z 20008KT 34/02 A2976 RMK A01 T03430021  RH  013%=      5-min Rain = 0
KCR2 210205Z 20008KT 34/02 A2976 RMK A01 T03430021  RH  013%=      5-min Rain = 0
KCR2 210206Z 20008KT 34/02 A2976 RMK A01 T03420021  RH  013%=      5-min Rain = 0
KCR2 210207Z 20008KT 34/02 A2976 RMK A01 T03410020  RH  013%=      5-min Rain = 0
KCR2 210208Z 20007KT 34/02 A2976 RMK A01 T03410021  RH  013%=      5-min Rain = 0
KCR2 210209Z 20007KT 34/02 A2976 RMK A01 T03400021  RH  013%=      5-min Rain = 0
KCR2 210210Z 20006KT 34/02 A2976 RMK A01 T03380021  RH  014%=      5-min Rain = 0
KCR2 210211Z 20006KT 34/02 A2976 RMK A01 T03370022  RH  014%=      5-min Rain = 0
KCR2 210212Z 20006KT 34/02 A2976 RMK A01 T03350022  RH  014%=      5-min Rain = 0
KCR2 210213Z 20006KT 33/02 A2976 RMK A01 T03340023  RH  014%=      5-min Rain = 0
KCR2 210214Z 20006KT 33/02 A2976 RMK A01 T03320023  RH  014%=      5-min Rain = 0
KCR2 210215Z 19006KT 33/02 A2976 RMK A01 T03310023  RH  014%=      5-min Rain = 0
KCR2 210216Z 19006KT 33/02 A2976 RMK A01 T03300023  RH  014%=      5-min Rain = 0
KCR2 210217Z 19006KT 33/02 A2976 RMK A01 T03300024  RH  014%=      5-min Rain = 0
KCR2 210218Z 19006KT 33/02 A2976 RMK A01 T03300024  RH  014%=      5-min Rain = 0
KCR2 210219Z 19007KT 33/03 A2976 RMK A01 T03300025  RH  015%=      5-min Rain = 0
KCR2 210220Z 19007KT 33/03 A2976 RMK A01 T03300026  RH  015%=      5-min Rain = 0
KCR2 210221Z 19008KT 33/03 A2976 RMK A01 T03300027  RH  015%=      5-min Rain = 0
KCR2 210222Z 19008KT 33/03 A2976 RMK A01 T03300027  RH  015%=      5-min Rain = 0
KCR2 210223Z 19008KT 33/03 A2976 RMK A01 T03300027  RH  015%=      5-min Rain = 0
KCR2 210224Z 19009KT 33/03 A2976 RMK A01 T03310027  RH  015%=      5-min Rain = 0
KCR2 210225Z 19010KT 33/03 A2976 RMK A01 T03310027  RH  015%=      5-min Rain = 0
KCR2 210226Z 19013KT 33/03 A2976 RMK A01 T03310026  RH  015%=      5-min Rain = 0
KCR2 210227Z 19017KT 33/06 A2977 RMK A01 T03310058  RH  018%=      5-min Rain = 0
KCR2 210228Z 18016KT 34/11 A2977 RMK A01 T03350110  RH  025%=      5-min Rain = 0
KCR2 210229Z 19015KT 34/13 A2976 RMK A01 T03390131  RH  029%=      5-min Rain = 0
KCR2 210230Z 18017KT 34/14 A2976 RMK A01 T03390138  RH  030%=      5-min Rain = 0
KCR2 210231Z 18014KT 34/13 A2977 RMK A01 T03390132  RH  029%=      5-min Rain = 0
KCR2 210232Z 18019KT 34/15 A2976 RMK A01 T03380149  RH  032%=      5-min Rain = 0
KCR2 210233Z 18020KT 34/17 A2976 RMK A01 T03380171  RH  037%=      5-min Rain = 0
KCR2 210234Z 17022KT 34/18 A2976 RMK A01 T03360175  RH  038%=      5-min Rain = 0
KCR2 210235Z 18019KT 34/18 A2977 RMK A01 T03360177  RH  039%=      5-min Rain = 0
KCR2 210236Z 18018G23KT 34/18 A2976 RMK A01 T03350180  RH  040%=      5-min Rain = 0
KCR2 210237Z 18020KT 33/18 A2977 RMK A01 T03340182  RH  041%=      5-min Rain = 0
KCR2 210238Z 18020KT 33/19 A2977 RMK A01 T03340185  RH  041%=      5-min Rain = 0
KCR2 210239Z 18019G24KT 33/18 A2977 RMK A01 T03340184  RH  041%=      5-min Rain = 0
KCR2 210240Z 18018KT 33/18 A2977 RMK A01 T03330183  RH  041%=      5-min Rain = 0
KCR2 210241Z 18020KT 33/18 A2977 RMK A01 T03330183  RH  041%=      5-min Rain = 0
KCR2 210242Z 18017KT 33/18 A2977 RMK A01 T03330183  RH  041%=      5-min Rain = 0
KCR2 210243Z 18017KT 33/18 A2977 RMK A01 T03330183  RH  041%=      5-min Rain = 0
KCR2 210244Z 19016G22KT 33/18 A2977 RMK A01 T03320182  RH  041%=      5-min Rain = 0
KCR2 210245Z 18021KT 33/18 A2977 RMK A01 T03310183  RH  042%=      5-min Rain = 0
KCR2 210246Z 17017KT 33/18 A2977 RMK A01 T03310184  RH  042%=      5-min Rain = 0
KCR2 210247Z 18016KT 33/18 A2977 RMK A01 T03310184  RH  042%=      5-min Rain = 0
KCR2 210248Z 18020KT 33/18 A2977 RMK A01 T03300184  RH  042%=      5-min Rain = 0
KCR2 210249Z 18018KT 33/18 A2977 RMK A01 T03300184  RH  042%=      5-min Rain = 0
KCR2 210250Z 18018KT 33/19 A2977 RMK A01 T03300185  RH  042%=      5-min Rain = 0
KCR2 210251Z 18020G26KT 33/18 A2977 RMK A01 T03290184  RH  042%=      5-min Rain = 0
KCR2 210252Z 18019KT 33/18 A2978 RMK A01 T03290184  RH  042%=      5-min Rain = 0
KCR2 210253Z 18015KT 33/18 A2978 RMK A01 T03290184  RH  042%=      5-min Rain = 0
KCR2 210254Z 18018KT 33/18 A2978 RMK A01 T03280184  RH  043%=      5-min Rain = 0
KCR2 210255Z 18017KT 33/18 A2978 RMK A01 T03280184  RH  043%=      5-min Rain = 0
KCR2 210256Z 18018G23KT 33/18 A2978 RMK A01 T03270184  RH  043%=      5-min Rain = 0
KCR2 210257Z 18017KT 33/18 A2978 RMK A01 T03270184  RH  043%=      5-min Rain = 0
KCR2 210258Z 18019KT 33/18 A2978 RMK A01 T03270183  RH  043%=      5-min Rain = 0
KCR2 210259Z 17016G23KT 33/18 A2978 RMK A01 T03260183  RH  043%=      5-min Rain = 0
KCR2 210300Z 18019KT 33/18 A2978 RMK A01 T03260182  RH  043%=      5-min Rain = 0
KCR2 210301Z 18018G24KT 33/18 A2978 RMK A01 T03260182  RH  043%=      5-min Rain = 0
KCR2 210302Z 18018G23KT 33/18 A2978 RMK A01 T03260182  RH  042%=      5-min Rain = 0
KCR2 210303Z 18017KT 33/18 A2978 RMK A01 T03250181  RH  043%=      5-min Rain = 0
KCR2 210304Z 18016KT 32/18 A2978 RMK A01 T03240181  RH  043%=      5-min Rain = 0
KCR2 210305Z 18019KT 32/18 A2978 RMK A01 T03240181  RH  043%=      5-min Rain = 0
KCR2 210306Z 18019KT 32/18 A2978 RMK A01 T03240181  RH  043%=      5-min Rain = 0
KCR2 210307Z 18019KT 32/18 A2978 RMK A01 T03240181  RH  043%=      5-min Rain = 0
KCR2 210308Z 18018KT 32/18 A2978 RMK A01 T03230181  RH  043%=      5-min Rain = 0
KCR2 210309Z 18015KT 32/18 A2978 RMK A01 T03230181  RH  043%=      5-min Rain = 0
KCR2 210310Z 18016KT 32/18 A2978 RMK A01 T03220181  RH  043%=      5-min Rain = 0
KCR2 210311Z 18017KT 32/18 A2978 RMK A01 T03220181  RH  043%=      5-min Rain = 0
KCR2 210312Z 19018KT 32/18 A2978 RMK A01 T03220182  RH  043%=      5-min Rain = 0
KCR2 210313Z 18018G26KT 32/18 A2978 RMK A01 T03210181  RH  043%=      5-min Rain = 0
KCR2 210314Z 18018KT 32/18 A2979 RMK A01 T03220182  RH  043%=      5-min Rain = 0
KCR2 210315Z 18013KT 32/18 A2979 RMK A01 T03210182  RH  043%=      5-min Rain = 0
KCR2 210316Z 18017G22KT 32/18 A2979 RMK A01 T03210182  RH  044%=      5-min Rain = 0
KCR2 210317Z 18020KT 32/18 A2979 RMK A01 T03200182  RH  044%=      5-min Rain = 0
KCR2 210318Z 18020KT 32/18 A2979 RMK A01 T03200182  RH  044%=      5-min Rain = 0
KCR2 210319Z 18019KT 32/18 A2979 RMK A01 T03210182  RH  044%=      5-min Rain = 0
KCR2 210320Z 18016KT 32/18 A2979 RMK A01 T03210182  RH  044%=      5-min Rain = 0
KCR2 210321Z 18016KT 32/18 A2979 RMK A01 T03210183  RH  044%=      5-min Rain = 0
KCR2 210322Z 18019KT 32/18 A2979 RMK A01 T03200183  RH  044%=      5-min Rain = 0
KCR2 210323Z 18020KT 32/18 A2979 RMK A01 T03200183  RH  044%=      5-min Rain = 0
KCR2 210324Z 18019G25KT 32/18 A2979 RMK A01 T03190183  RH  044%=      5-min Rain = 0
KCR2 210325Z 18020KT 32/18 A2979 RMK A01 T03200184  RH  045%=      5-min Rain = 0
KCR2 210326Z 18018KT 32/18 A2979 RMK A01 T03190184  RH  045%=      5-min Rain = 0
KCR2 210327Z 18017KT 32/18 A2979 RMK A01 T03190184  RH  045%=      5-min Rain = 0
KCR2 210328Z 18018KT 32/18 A2979 RMK A01 T03180184  RH  045%=      5-min Rain = 0
KCR2 210329Z 18018KT 32/18 A2979 RMK A01 T03180184  RH  045%=      5-min Rain = 0
KCR2 210330Z 18016KT 32/18 A2979 RMK A01 T03180184  RH  045%=      5-min Rain = 0
KCR2 210331Z 18017KT 32/18 A2979 RMK A01 T03170183  RH  045%=      5-min Rain = 0
KCR2 210332Z 18017KT 32/18 A298 RMK A01 T03170184  RH  045%=      5-min Rain = 0
KCR2 210333Z 18017G24KT 32/18 A298 RMK A01 T03170184  RH  045%=      5-min Rain = 0
KCR2 210334Z 18020KT 32/18 A2979 RMK A01 T03170184  RH  045%=      5-min Rain = 0
KCR2 210335Z 18017KT 32/18 A298 RMK A01 T03170184  RH  045%=      5-min Rain = 0
KCR2 210336Z 18020KT 32/18 A298 RMK A01 T03170184  RH  045%=      5-min Rain = 0
KCR2 210337Z 18018KT 32/18 A298 RMK A01 T03160184  RH  045%=      5-min Rain = 0
KCR2 210338Z 18017G23KT 32/18 A298 RMK A01 T03160184  RH  045%=      5-min Rain = 0
KCR2 210339Z 18019KT 32/18 A298 RMK A01 T03150183  RH  045%=      5-min Rain = 0
KCR2 210340Z 18018KT 32/18 A298 RMK A01 T03160183  RH  045%=      5-min Rain = 0
KCR2 210341Z 18014KT 32/18 A298 RMK A01 T03160183  RH  045%=      5-min Rain = 0
KCR2 210342Z 18019KT 32/18 A298 RMK A01 T03150183  RH  046%=      5-min Rain = 0
KCR2 210343Z 18019G24KT 32/18 A298 RMK A01 T03150183  RH  046%=      5-min Rain = 0
KCR2 210344Z 18017KT 32/18 A298 RMK A01 T03150183  RH  045%=      5-min Rain = 0
KCR2 210345Z 18016KT 32/18 A298 RMK A01 T03150183  RH  045%=      5-min Rain = 0
KCR2 210346Z 18016KT 32/18 A298 RMK A01 T03150183  RH  046%=      5-min Rain = 0
KCR2 210347Z 18017G23KT 31/18 A298 RMK A01 T03140183  RH  046%=      5-min Rain = 0
KCR2 210348Z 19018KT 31/18 A298 RMK A01 T03140183  RH  046%=      5-min Rain = 0
KCR2 210349Z 18018KT 31/18 A2981 RMK A01 T03140183  RH  046%=      5-min Rain = 0
KCR2 210350Z 18018KT 31/18 A2981 RMK A01 T03140183  RH  046%=      5-min Rain = 0
KCR2 210351Z 18018KT 31/18 A2981 RMK A01 T03140183  RH  046%=      5-min Rain = 0
KCR2 210352Z 18015KT 31/18 A2981 RMK A01 T03140183  RH  046%=      5-min Rain = 0
KCR2 210353Z 18015KT 31/18 A2981 RMK A01 T03130182  RH  046%=      5-min Rain = 0
KCR2 210354Z 19018KT 31/18 A2981 RMK A01 T03130182  RH  046%=      5-min Rain = 0
KCR2 210355Z 19016G21KT 31/18 A2981 RMK A01 T03130182  RH  046%=      5-min Rain = 0
KCR2 210356Z 18017KT 31/18 A2981 RMK A01 T03130182  RH  046%=      5-min Rain = 0
KCR2 210357Z 18014KT 31/18 A2981 RMK A01 T03130182  RH  046%=      5-min Rain = 0
KCR2 210358Z 18013KT 31/18 A2981 RMK A01 T03120181  RH  046%=      5-min Rain = 0
KCR2 210359Z 19015KT 31/18 A2981 RMK A01 T03110181  RH  046%=      5-min Rain = 0
KCR2 210400Z 18015KT 31/18 A2981 RMK A01 T03110181  RH  046%=      5-min Rain = 0
KCR2 210401Z 19017KT 31/18 A2981 RMK A01 T03110181  RH  046%=      5-min Rain = 0
KCR2 210402Z 18017KT 31/18 A2981 RMK A01 T03110180  RH  046%=      5-min Rain = 0
KCR2 210403Z 19016KT 31/18 A2981 RMK A01 T03120180  RH  046%=      5-min Rain = 0
KCR2 210404Z 18016G22KT 31/18 A2981 RMK A01 T03110180  RH  046%=      5-min Rain = 0
KCR2 210405Z 18016KT 31/18 A2981 RMK A01 T03110180  RH  046%=      5-min Rain = 0
KCR2 210406Z 18016KT 31/18 A2981 RMK A01 T03110180  RH  046%=      5-min Rain = 0
KCR2 210407Z 18017KT 31/18 A2981 RMK A01 T03110180  RH  045%=      5-min Rain = 0
KCR2 210408Z 18016KT 31/18 A2981 RMK A01 T03110180  RH  045%=      5-min Rain = 0
KCR2 210409Z 19015KT 31/18 A2981 RMK A01 T03110179  RH  045%=      5-min Rain = 0
KCR2 210410Z 18014KT 31/18 A2981 RMK A01 T03110179  RH  045%=      5-min Rain = 0
KCR2 210411Z 18013KT 31/18 A2981 RMK A01 T03100178  RH  045%=      5-min Rain = 0
KCR2 210412Z 19016KT 31/18 A2981 RMK A01 T03100178  RH  045%=      5-min Rain = 0
KCR2 210413Z 18014KT 31/18 A2981 RMK A01 T03100178  RH  045%=      5-min Rain = 0
KCR2 210414Z 18014KT 31/18 A2981 RMK A01 T03090178  RH  045%=      5-min Rain = 0
KCR2 210415Z 18014KT 31/18 A2981 RMK A01 T03090177  RH  045%=      5-min Rain = 0
KCR2 210416Z 19016KT 31/18 A2981 RMK A01 T03090177  RH  045%=      5-min Rain = 0
KCR2 210417Z 18016G21KT 31/18 A2981 RMK A01 T03090177  RH  045%=      5-min Rain = 0
KCR2 210418Z 19015KT 31/18 A2981 RMK A01 T03090177  RH  045%=      5-min Rain = 0
KCR2 210419Z 19014KT 31/18 A2981 RMK A01 T03090176  RH  045%=      5-min Rain = 0
KCR2 210420Z 19014KT 31/18 A2981 RMK A01 T03090176  RH  045%=      5-min Rain = 0
KCR2 210421Z 19013KT 31/18 A2981 RMK A01 T03080175  RH  045%=      5-min Rain = 0
KCR2 210422Z 19015KT 31/17 A2981 RMK A01 T03080174  RH  045%=      5-min Rain = 0
KCR2 210423Z 19012KT 31/17 A2981 RMK A01 T03080174  RH  045%=      5-min Rain = 0
KCR2 210424Z 19014KT 31/17 A2981 RMK A01 T03080174  RH  045%=      5-min Rain = 0
KCR2 210425Z 19014KT 31/17 A2981 RMK A01 T03070173  RH  045%=      5-min Rain = 0
KCR2 210426Z 19013KT 31/17 A2981 RMK A01 T03070173  RH  045%=      5-min Rain = 0
KCR2 210427Z 19015KT 31/17 A2981 RMK A01 T03070173  RH  045%=      5-min Rain = 0
KCR2 210428Z 19012KT 31/17 A2981 RMK A01 T03070172  RH  044%=      5-min Rain = 0
KCR2 210429Z 19014KT 31/17 A2981 RMK A01 T03070172  RH  044%=      5-min Rain = 0
KCR2 210430Z 19013KT 31/17 A2981 RMK A01 T03070171  RH  044%=      5-min Rain = 0
KCR2 210431Z 19015KT 31/17 A2981 RMK A01 T03060170  RH  044%=      5-min Rain = 0
KCR2 210432Z 19014KT 31/17 A2981 RMK A01 T03060170  RH  044%=      5-min Rain = 0
KCR2 210433Z 19016KT 31/17 A2981 RMK A01 T03070170  RH  044%=      5-min Rain = 0
KCR2 210434Z 19014KT 31/17 A2981 RMK A01 T03070169  RH  044%=      5-min Rain = 0
KCR2 210435Z 19013KT 31/17 A2981 RMK A01 T03070169  RH  044%=      5-min Rain = 0
KCR2 210436Z 19014KT 31/17 A2981 RMK A01 T03070169  RH  044%=      5-min Rain = 0
KCR2 210437Z 19014KT 31/17 A2981 RMK A01 T03060168  RH  044%=      5-min Rain = 0
KCR2 210438Z 18013KT 31/17 A2981 RMK A01 T03060168  RH  043%=      5-min Rain = 0
KCR2 210439Z 19014KT 31/17 A2981 RMK A01 T03060168  RH  044%=      5-min Rain = 0
KCR2 210440Z 19014G20KT 31/17 A2981 RMK A01 T03060168  RH  043%=      5-min Rain = 0
KCR2 210441Z 19013KT 31/17 A2981 RMK A01 T03050167  RH  043%=      5-min Rain = 0
KCR2 210442Z 19011KT 31/17 A2981 RMK A01 T03050166  RH  043%=      5-min Rain = 0
KCR2 210443Z 19013KT 31/17 A2981 RMK A01 T03050166  RH  043%=      5-min Rain = 0
KCR2 210444Z 19011KT 31/17 A2981 RMK A01 T03050166  RH  043%=      5-min Rain = 0
KCR2 210445Z 18013KT 31/17 A2981 RMK A01 T03050166  RH  043%=      5-min Rain = 0
KCR2 210446Z 19012KT 31/17 A2981 RMK A01 T03050165  RH  043%=      5-min Rain = 0
KCR2 210447Z 19014KT 31/17 A2981 RMK A01 T03050165  RH  043%=      5-min Rain = 0
KCR2 210448Z 19013KT 31/17 A2981 RMK A01 T03050165  RH  043%=      5-min Rain = 0
KCR2 210449Z 19014KT 30/16 A2981 RMK A01 T03040164  RH  043%=      5-min Rain = 0
KCR2 210450Z 19013KT 31/17 A2981 RMK A01 T03050165  RH  043%=      5-min Rain = 0
KCR2 210451Z 19014KT 31/16 A2981 RMK A01 T03050164  RH  043%=      5-min Rain = 0
KCR2 210452Z 19014KT 31/17 A2981 RMK A01 T03050165  RH  043%=      5-min Rain = 0
KCR2 210453Z 19014KT 31/17 A2981 RMK A01 T03050165  RH  043%=      5-min Rain = 0
KCR2 210454Z 19013KT 31/17 A2981 RMK A01 T03050165  RH  043%=      5-min Rain = 0
KCR2 210455Z 19014KT 31/17 A2981 RMK A01 T03050165  RH  043%=      5-min Rain = 0
KCR2 210456Z 19014KT 31/16 A2981 RMK A01 T03050164  RH  043%=      5-min Rain = 0
KCR2 210457Z 19015KT 31/17 A2981 RMK A01 T03050165  RH  043%=      5-min Rain = 0
KCR2 210458Z 19012KT 31/17 A2981 RMK A01 T03050165  RH  043%=      5-min Rain = 0
KCR2 210459Z 18011KT 30/17 A2981 RMK A01 T03040165  RH  043%=      5-min Rain = 0

Page generated in 0.0765 seconds.